<?xml version="1.0" encoding="UTF-8" standalone="no" ?>
<gpx xmlns="http://www.topografix.com/GPX/1/1" xmlns:xsi="http://www.w3.org/2001/XMLSchema-instance" xsi:schemaLocation="http://www.topografix.com/GPX/1/1 http://www.topografix.com/GPX/1/1/gpx.xsd" version="1.1" creator="VisuGPX - https://www.visugpx.com">
  <metadata>
    <name>Aulp du Seuil</name>
    <desc><![CDATA[pas de ragri.
cf http://stephane-despreaux.imag.fr/4sup/ski/2015/1424117047400.php]]></desc>
  </metadata>
  <trk>
    <name><![CDATA[ACTIVE LOG- 16 FEV 2015 12-05]]></name>
    <trkseg>
      <trkpt lat="45.3572" lon="5.90631">
        <ele>1350.79</ele>
        <time>2015-02-16T11:05:42Z</time>
      </trkpt>
      <trkpt lat="45.35721" lon="5.90633">
        <ele>1378.67</ele>
        <time>2015-02-16T11:05:43Z</time>
      </trkpt>
      <trkpt lat="45.35721" lon="5.90632">
        <ele>1377.23</ele>
        <time>2015-02-16T11:05:44Z</time>
      </trkpt>
      <trkpt lat="45.3572" lon="5.90632">
        <ele>1372.42</ele>
        <time>2015-02-16T11:05:46Z</time>
      </trkpt>
      <trkpt lat="45.3572" lon="5.90632">
        <ele>1374.82</ele>
        <time>2015-02-16T11:05:47Z</time>
      </trkpt>
      <trkpt lat="45.35719" lon="5.90626">
        <ele>1371.46</ele>
        <time>2015-02-16T11:05:52Z</time>
      </trkpt>
      <trkpt lat="45.35719" lon="5.90626">
        <ele>1370.02</ele>
        <time>2015-02-16T11:05:54Z</time>
      </trkpt>
      <trkpt lat="45.35717" lon="5.90628">
        <ele>1368.09</ele>
        <time>2015-02-16T11:05:56Z</time>
      </trkpt>
      <trkpt lat="45.35716" lon="5.9063">
        <ele>1364.73</ele>
        <time>2015-02-16T11:06:02Z</time>
      </trkpt>
      <trkpt lat="45.35718" lon="5.9063">
        <ele>1361.84</ele>
        <time>2015-02-16T11:06:09Z</time>
      </trkpt>
      <trkpt lat="45.35721" lon="5.90627">
        <ele>1358.48</ele>
        <time>2015-02-16T11:06:20Z</time>
      </trkpt>
      <trkpt lat="45.35717" lon="5.90619">
        <ele>1357.04</ele>
        <time>2015-02-16T11:06:40Z</time>
      </trkpt>
      <trkpt lat="45.35707" lon="5.90596">
        <ele>1357.04</ele>
        <time>2015-02-16T11:07:00Z</time>
      </trkpt>
      <trkpt lat="45.35695" lon="5.90578">
        <ele>1358.48</ele>
        <time>2015-02-16T11:07:23Z</time>
      </trkpt>
      <trkpt lat="45.3569" lon="5.90573">
        <ele>1358.48</ele>
        <time>2015-02-16T11:07:30Z</time>
      </trkpt>
      <trkpt lat="45.35681" lon="5.90551">
        <ele>1359.92</ele>
        <time>2015-02-16T11:07:54Z</time>
      </trkpt>
      <trkpt lat="45.35675" lon="5.90536">
        <ele>1363.29</ele>
        <time>2015-02-16T11:08:09Z</time>
      </trkpt>
      <trkpt lat="45.35671" lon="5.90521">
        <ele>1366.65</ele>
        <time>2015-02-16T11:08:22Z</time>
      </trkpt>
      <trkpt lat="45.35667" lon="5.90503">
        <ele>1369.54</ele>
        <time>2015-02-16T11:08:37Z</time>
      </trkpt>
      <trkpt lat="45.35658" lon="5.90485">
        <ele>1372.9</ele>
        <time>2015-02-16T11:08:56Z</time>
      </trkpt>
      <trkpt lat="45.35652" lon="5.90471">
        <ele>1376.26</ele>
        <time>2015-02-16T11:09:13Z</time>
      </trkpt>
      <trkpt lat="45.35649" lon="5.90456">
        <ele>1379.15</ele>
        <time>2015-02-16T11:09:29Z</time>
      </trkpt>
      <trkpt lat="45.35643" lon="5.90446">
        <ele>1382.03</ele>
        <time>2015-02-16T11:09:45Z</time>
      </trkpt>
      <trkpt lat="45.35628" lon="5.90426">
        <ele>1385.4</ele>
        <time>2015-02-16T11:10:08Z</time>
      </trkpt>
      <trkpt lat="45.3562" lon="5.90411">
        <ele>1387.8</ele>
        <time>2015-02-16T11:10:21Z</time>
      </trkpt>
      <trkpt lat="45.35602" lon="5.90397">
        <ele>1390.68</ele>
        <time>2015-02-16T11:10:44Z</time>
      </trkpt>
      <trkpt lat="45.35591" lon="5.90387">
        <ele>1393.57</ele>
        <time>2015-02-16T11:11:03Z</time>
      </trkpt>
      <trkpt lat="45.3558" lon="5.90377">
        <ele>1396.93</ele>
        <time>2015-02-16T11:11:19Z</time>
      </trkpt>
      <trkpt lat="45.35573" lon="5.90378">
        <ele>1397.89</ele>
        <time>2015-02-16T11:11:25Z</time>
      </trkpt>
      <trkpt lat="45.35561" lon="5.90371">
        <ele>1401.74</ele>
        <time>2015-02-16T11:11:42Z</time>
      </trkpt>
      <trkpt lat="45.35554" lon="5.90368">
        <ele>1403.66</ele>
        <time>2015-02-16T11:11:51Z</time>
      </trkpt>
      <trkpt lat="45.35551" lon="5.90368">
        <ele>1404.14</ele>
        <time>2015-02-16T11:11:53Z</time>
      </trkpt>
      <trkpt lat="45.35539" lon="5.90363">
        <ele>1407.51</ele>
        <time>2015-02-16T11:12:07Z</time>
      </trkpt>
      <trkpt lat="45.35533" lon="5.90358">
        <ele>1410.87</ele>
        <time>2015-02-16T11:12:19Z</time>
      </trkpt>
      <trkpt lat="45.35523" lon="5.90349">
        <ele>1413.76</ele>
        <time>2015-02-16T11:12:32Z</time>
      </trkpt>
      <trkpt lat="45.35515" lon="5.90344">
        <ele>1417.12</ele>
        <time>2015-02-16T11:12:43Z</time>
      </trkpt>
      <trkpt lat="45.35509" lon="5.90338">
        <ele>1420.49</ele>
        <time>2015-02-16T11:12:59Z</time>
      </trkpt>
      <trkpt lat="45.35517" lon="5.90325">
        <ele>1423.37</ele>
        <time>2015-02-16T11:13:14Z</time>
      </trkpt>
      <trkpt lat="45.35521" lon="5.90309">
        <ele>1426.25</ele>
        <time>2015-02-16T11:13:29Z</time>
      </trkpt>
      <trkpt lat="45.35514" lon="5.90303">
        <ele>1429.62</ele>
        <time>2015-02-16T11:13:45Z</time>
      </trkpt>
      <trkpt lat="45.35511" lon="5.90291">
        <ele>1432.98</ele>
        <time>2015-02-16T11:13:57Z</time>
      </trkpt>
      <trkpt lat="45.35507" lon="5.90283">
        <ele>1435.87</ele>
        <time>2015-02-16T11:14:11Z</time>
      </trkpt>
      <trkpt lat="45.35507" lon="5.90271">
        <ele>1439.23</ele>
        <time>2015-02-16T11:14:22Z</time>
      </trkpt>
      <trkpt lat="45.35509" lon="5.90261">
        <ele>1442.11</ele>
        <time>2015-02-16T11:14:36Z</time>
      </trkpt>
      <trkpt lat="45.35516" lon="5.90249">
        <ele>1445</ele>
        <time>2015-02-16T11:14:51Z</time>
      </trkpt>
      <trkpt lat="45.35522" lon="5.90238">
        <ele>1448.36</ele>
        <time>2015-02-16T11:15:04Z</time>
      </trkpt>
      <trkpt lat="45.35523" lon="5.90235">
        <ele>1448.84</ele>
        <time>2015-02-16T11:15:07Z</time>
      </trkpt>
      <trkpt lat="45.35522" lon="5.90229">
        <ele>1451.25</ele>
        <time>2015-02-16T11:15:17Z</time>
      </trkpt>
      <trkpt lat="45.3552" lon="5.90227">
        <ele>1452.69</ele>
        <time>2015-02-16T11:15:22Z</time>
      </trkpt>
      <trkpt lat="45.35514" lon="5.90219">
        <ele>1454.61</ele>
        <time>2015-02-16T11:15:33Z</time>
      </trkpt>
      <trkpt lat="45.35514" lon="5.90218">
        <ele>1454.61</ele>
        <time>2015-02-16T11:15:34Z</time>
      </trkpt>
      <trkpt lat="45.35506" lon="5.90207">
        <ele>1457.02</ele>
        <time>2015-02-16T11:15:47Z</time>
      </trkpt>
      <trkpt lat="45.35502" lon="5.902">
        <ele>1458.94</ele>
        <time>2015-02-16T11:15:56Z</time>
      </trkpt>
      <trkpt lat="45.35506" lon="5.90185">
        <ele>1461.82</ele>
        <time>2015-02-16T11:16:11Z</time>
      </trkpt>
      <trkpt lat="45.35508" lon="5.90182">
        <ele>1462.3</ele>
        <time>2015-02-16T11:16:27Z</time>
      </trkpt>
      <trkpt lat="45.35509" lon="5.90175">
        <ele>1464.23</ele>
        <time>2015-02-16T11:16:36Z</time>
      </trkpt>
      <trkpt lat="45.35509" lon="5.90166">
        <ele>1465.67</ele>
        <time>2015-02-16T11:16:44Z</time>
      </trkpt>
      <trkpt lat="45.35511" lon="5.90156">
        <ele>1468.07</ele>
        <time>2015-02-16T11:16:55Z</time>
      </trkpt>
      <trkpt lat="45.35514" lon="5.90152">
        <ele>1468.07</ele>
        <time>2015-02-16T11:16:59Z</time>
      </trkpt>
      <trkpt lat="45.35517" lon="5.90143">
        <ele>1469.03</ele>
        <time>2015-02-16T11:17:14Z</time>
      </trkpt>
      <trkpt lat="45.35519" lon="5.90137">
        <ele>1468.55</ele>
        <time>2015-02-16T11:17:29Z</time>
      </trkpt>
      <trkpt lat="45.35528" lon="5.90142">
        <ele>1469.51</ele>
        <time>2015-02-16T11:17:46Z</time>
      </trkpt>
      <trkpt lat="45.35535" lon="5.90153">
        <ele>1471.92</ele>
        <time>2015-02-16T11:17:59Z</time>
      </trkpt>
      <trkpt lat="45.3554" lon="5.90153">
        <ele>1472.88</ele>
        <time>2015-02-16T11:18:04Z</time>
      </trkpt>
      <trkpt lat="45.35542" lon="5.90153">
        <ele>1473.36</ele>
        <time>2015-02-16T11:18:07Z</time>
      </trkpt>
      <trkpt lat="45.35545" lon="5.90156">
        <ele>1474.32</ele>
        <time>2015-02-16T11:18:12Z</time>
      </trkpt>
      <trkpt lat="45.35554" lon="5.90158">
        <ele>1476.72</ele>
        <time>2015-02-16T11:18:24Z</time>
      </trkpt>
      <trkpt lat="45.35565" lon="5.90153">
        <ele>1479.13</ele>
        <time>2015-02-16T11:18:37Z</time>
      </trkpt>
      <trkpt lat="45.35572" lon="5.90157">
        <ele>1480.57</ele>
        <time>2015-02-16T11:18:44Z</time>
      </trkpt>
      <trkpt lat="45.35578" lon="5.90154">
        <ele>1483.45</ele>
        <time>2015-02-16T11:18:58Z</time>
      </trkpt>
      <trkpt lat="45.3559" lon="5.90164">
        <ele>1485.85</ele>
        <time>2015-02-16T11:19:11Z</time>
      </trkpt>
      <trkpt lat="45.35599" lon="5.90158">
        <ele>1487.78</ele>
        <time>2015-02-16T11:19:24Z</time>
      </trkpt>
      <trkpt lat="45.35609" lon="5.90159">
        <ele>1490.66</ele>
        <time>2015-02-16T11:19:38Z</time>
      </trkpt>
      <trkpt lat="45.35616" lon="5.90151">
        <ele>1493.55</ele>
        <time>2015-02-16T11:19:55Z</time>
      </trkpt>
      <trkpt lat="45.35624" lon="5.90152">
        <ele>1496.91</ele>
        <time>2015-02-16T11:20:09Z</time>
      </trkpt>
      <trkpt lat="45.35633" lon="5.90153">
        <ele>1499.79</ele>
        <time>2015-02-16T11:20:25Z</time>
      </trkpt>
      <trkpt lat="45.3564" lon="5.90151">
        <ele>1503.16</ele>
        <time>2015-02-16T11:20:42Z</time>
      </trkpt>
      <trkpt lat="45.3565" lon="5.90149">
        <ele>1506.04</ele>
        <time>2015-02-16T11:20:56Z</time>
      </trkpt>
      <trkpt lat="45.35658" lon="5.90147">
        <ele>1509.41</ele>
        <time>2015-02-16T11:21:11Z</time>
      </trkpt>
      <trkpt lat="45.35664" lon="5.90147">
        <ele>1512.29</ele>
        <time>2015-02-16T11:21:24Z</time>
      </trkpt>
      <trkpt lat="45.35673" lon="5.90148">
        <ele>1515.18</ele>
        <time>2015-02-16T11:21:40Z</time>
      </trkpt>
      <trkpt lat="45.35678" lon="5.9015">
        <ele>1518.54</ele>
        <time>2015-02-16T11:21:52Z</time>
      </trkpt>
      <trkpt lat="45.35682" lon="5.90144">
        <ele>1521.9</ele>
        <time>2015-02-16T11:22:05Z</time>
      </trkpt>
      <trkpt lat="45.35679" lon="5.90139">
        <ele>1522.87</ele>
        <time>2015-02-16T11:22:12Z</time>
      </trkpt>
      <trkpt lat="45.35675" lon="5.90129">
        <ele>1526.23</ele>
        <time>2015-02-16T11:22:27Z</time>
      </trkpt>
      <trkpt lat="45.35672" lon="5.90121">
        <ele>1529.59</ele>
        <time>2015-02-16T11:22:42Z</time>
      </trkpt>
      <trkpt lat="45.35666" lon="5.90114">
        <ele>1532.96</ele>
        <time>2015-02-16T11:22:55Z</time>
      </trkpt>
      <trkpt lat="45.3566" lon="5.90102">
        <ele>1535.84</ele>
        <time>2015-02-16T11:23:11Z</time>
      </trkpt>
      <trkpt lat="45.35656" lon="5.90093">
        <ele>1538.73</ele>
        <time>2015-02-16T11:23:23Z</time>
      </trkpt>
      <trkpt lat="45.35649" lon="5.90079">
        <ele>1542.09</ele>
        <time>2015-02-16T11:23:40Z</time>
      </trkpt>
      <trkpt lat="45.35643" lon="5.90068">
        <ele>1544.5</ele>
        <time>2015-02-16T11:23:53Z</time>
      </trkpt>
      <trkpt lat="45.35634" lon="5.90051">
        <ele>1547.38</ele>
        <time>2015-02-16T11:24:11Z</time>
      </trkpt>
      <trkpt lat="45.35629" lon="5.90036">
        <ele>1550.74</ele>
        <time>2015-02-16T11:24:27Z</time>
      </trkpt>
      <trkpt lat="45.35626" lon="5.90015">
        <ele>1553.15</ele>
        <time>2015-02-16T11:24:42Z</time>
      </trkpt>
      <trkpt lat="45.35625" lon="5.90009">
        <ele>1555.07</ele>
        <time>2015-02-16T11:24:51Z</time>
      </trkpt>
      <trkpt lat="45.35626" lon="5.89992">
        <ele>1557.95</ele>
        <time>2015-02-16T11:25:04Z</time>
      </trkpt>
      <trkpt lat="45.35623" lon="5.8998">
        <ele>1560.84</ele>
        <time>2015-02-16T11:25:19Z</time>
      </trkpt>
      <trkpt lat="45.35626" lon="5.89964">
        <ele>1564.68</ele>
        <time>2015-02-16T11:25:34Z</time>
      </trkpt>
      <trkpt lat="45.35629" lon="5.89953">
        <ele>1567.57</ele>
        <time>2015-02-16T11:25:47Z</time>
      </trkpt>
      <trkpt lat="45.35633" lon="5.89937">
        <ele>1570.45</ele>
        <time>2015-02-16T11:26:01Z</time>
      </trkpt>
      <trkpt lat="45.35633" lon="5.89923">
        <ele>1573.82</ele>
        <time>2015-02-16T11:26:14Z</time>
      </trkpt>
      <trkpt lat="45.35639" lon="5.89929">
        <ele>1574.78</ele>
        <time>2015-02-16T11:26:35Z</time>
      </trkpt>
      <trkpt lat="45.35639" lon="5.89928">
        <ele>1578.14</ele>
        <time>2015-02-16T11:26:51Z</time>
      </trkpt>
      <trkpt lat="45.35642" lon="5.89915">
        <ele>1581.03</ele>
        <time>2015-02-16T11:27:09Z</time>
      </trkpt>
      <trkpt lat="45.35643" lon="5.89898">
        <ele>1584.39</ele>
        <time>2015-02-16T11:27:28Z</time>
      </trkpt>
      <trkpt lat="45.35645" lon="5.89887">
        <ele>1587.27</ele>
        <time>2015-02-16T11:27:45Z</time>
      </trkpt>
      <trkpt lat="45.35644" lon="5.89883">
        <ele>1589.2</ele>
        <time>2015-02-16T11:28:09Z</time>
      </trkpt>
      <trkpt lat="45.35637" lon="5.89873">
        <ele>1591.6</ele>
        <time>2015-02-16T11:28:31Z</time>
      </trkpt>
      <trkpt lat="45.35634" lon="5.8986">
        <ele>1594</ele>
        <time>2015-02-16T11:28:42Z</time>
      </trkpt>
      <trkpt lat="45.35629" lon="5.89853">
        <ele>1595.93</ele>
        <time>2015-02-16T11:28:54Z</time>
      </trkpt>
      <trkpt lat="45.35629" lon="5.89843">
        <ele>1596.89</ele>
        <time>2015-02-16T11:29:02Z</time>
      </trkpt>
      <trkpt lat="45.35625" lon="5.89838">
        <ele>1597.85</ele>
        <time>2015-02-16T11:29:10Z</time>
      </trkpt>
      <trkpt lat="45.35625" lon="5.89837">
        <ele>1597.85</ele>
        <time>2015-02-16T11:29:11Z</time>
      </trkpt>
      <trkpt lat="45.35626" lon="5.89829">
        <ele>1599.29</ele>
        <time>2015-02-16T11:29:21Z</time>
      </trkpt>
      <trkpt lat="45.35627" lon="5.89829">
        <ele>1599.77</ele>
        <time>2015-02-16T11:29:23Z</time>
      </trkpt>
      <trkpt lat="45.35635" lon="5.89836">
        <ele>1601.69</ele>
        <time>2015-02-16T11:29:36Z</time>
      </trkpt>
      <trkpt lat="45.35641" lon="5.89831">
        <ele>1603.62</ele>
        <time>2015-02-16T11:29:47Z</time>
      </trkpt>
      <trkpt lat="45.35639" lon="5.89819">
        <ele>1606.98</ele>
        <time>2015-02-16T11:30:01Z</time>
      </trkpt>
      <trkpt lat="45.35638" lon="5.89815">
        <ele>1608.42</ele>
        <time>2015-02-16T11:30:08Z</time>
      </trkpt>
      <trkpt lat="45.35635" lon="5.89806">
        <ele>1611.31</ele>
        <time>2015-02-16T11:30:21Z</time>
      </trkpt>
      <trkpt lat="45.35634" lon="5.89806">
        <ele>1611.31</ele>
        <time>2015-02-16T11:30:22Z</time>
      </trkpt>
      <trkpt lat="45.35631" lon="5.89801">
        <ele>1613.71</ele>
        <time>2015-02-16T11:30:33Z</time>
      </trkpt>
      <trkpt lat="45.3563" lon="5.89795">
        <ele>1615.63</ele>
        <time>2015-02-16T11:30:41Z</time>
      </trkpt>
      <trkpt lat="45.35628" lon="5.89787">
        <ele>1618.04</ele>
        <time>2015-02-16T11:30:54Z</time>
      </trkpt>
      <trkpt lat="45.35628" lon="5.89786">
        <ele>1617.56</ele>
        <time>2015-02-16T11:31:10Z</time>
      </trkpt>
      <trkpt lat="45.35626" lon="5.89783">
        <ele>1619</ele>
        <time>2015-02-16T11:31:35Z</time>
      </trkpt>
      <trkpt lat="45.35626" lon="5.89775">
        <ele>1621.4</ele>
        <time>2015-02-16T11:31:47Z</time>
      </trkpt>
      <trkpt lat="45.35625" lon="5.89775">
        <ele>1621.88</ele>
        <time>2015-02-16T11:32:01Z</time>
      </trkpt>
      <trkpt lat="45.35625" lon="5.89771">
        <ele>1622.84</ele>
        <time>2015-02-16T11:32:15Z</time>
      </trkpt>
      <trkpt lat="45.35628" lon="5.89761">
        <ele>1624.77</ele>
        <time>2015-02-16T11:32:25Z</time>
      </trkpt>
      <trkpt lat="45.35624" lon="5.89751">
        <ele>1627.65</ele>
        <time>2015-02-16T11:32:40Z</time>
      </trkpt>
      <trkpt lat="45.35624" lon="5.89746">
        <ele>1628.61</ele>
        <time>2015-02-16T11:32:47Z</time>
      </trkpt>
      <trkpt lat="45.35622" lon="5.89738">
        <ele>1630.53</ele>
        <time>2015-02-16T11:32:55Z</time>
      </trkpt>
      <trkpt lat="45.3562" lon="5.89732">
        <ele>1632.94</ele>
        <time>2015-02-16T11:33:04Z</time>
      </trkpt>
      <trkpt lat="45.35619" lon="5.89723">
        <ele>1635.34</ele>
        <time>2015-02-16T11:33:16Z</time>
      </trkpt>
      <trkpt lat="45.3562" lon="5.89722">
        <ele>1635.82</ele>
        <time>2015-02-16T11:33:37Z</time>
      </trkpt>
      <trkpt lat="45.35619" lon="5.89721">
        <ele>1635.82</ele>
        <time>2015-02-16T11:33:58Z</time>
      </trkpt>
      <trkpt lat="45.35628" lon="5.89724">
        <ele>1637.26</ele>
        <time>2015-02-16T11:35:55Z</time>
      </trkpt>
      <trkpt lat="45.35624" lon="5.89717">
        <ele>1639.19</ele>
        <time>2015-02-16T11:36:05Z</time>
      </trkpt>
      <trkpt lat="45.35623" lon="5.8971">
        <ele>1641.59</ele>
        <time>2015-02-16T11:36:16Z</time>
      </trkpt>
      <trkpt lat="45.35623" lon="5.89709">
        <ele>1641.59</ele>
        <time>2015-02-16T11:36:17Z</time>
      </trkpt>
      <trkpt lat="45.35615" lon="5.897">
        <ele>1643.51</ele>
        <time>2015-02-16T11:36:29Z</time>
      </trkpt>
      <trkpt lat="45.35615" lon="5.89697">
        <ele>1644.47</ele>
        <time>2015-02-16T11:36:32Z</time>
      </trkpt>
      <trkpt lat="45.35618" lon="5.89691">
        <ele>1646.88</ele>
        <time>2015-02-16T11:36:44Z</time>
      </trkpt>
      <trkpt lat="45.3562" lon="5.89687">
        <ele>1649.76</ele>
        <time>2015-02-16T11:36:55Z</time>
      </trkpt>
      <trkpt lat="45.35619" lon="5.89684">
        <ele>1650.72</ele>
        <time>2015-02-16T11:37:00Z</time>
      </trkpt>
      <trkpt lat="45.35622" lon="5.89669">
        <ele>1654.09</ele>
        <time>2015-02-16T11:37:14Z</time>
      </trkpt>
      <trkpt lat="45.35622" lon="5.89659">
        <ele>1656.97</ele>
        <time>2015-02-16T11:37:26Z</time>
      </trkpt>
      <trkpt lat="45.35618" lon="5.89652">
        <ele>1658.89</ele>
        <time>2015-02-16T11:37:36Z</time>
      </trkpt>
      <trkpt lat="45.35621" lon="5.89646">
        <ele>1661.78</ele>
        <time>2015-02-16T11:37:53Z</time>
      </trkpt>
      <trkpt lat="45.35621" lon="5.89643">
        <ele>1663.22</ele>
        <time>2015-02-16T11:38:07Z</time>
      </trkpt>
      <trkpt lat="45.35625" lon="5.89642">
        <ele>1664.66</ele>
        <time>2015-02-16T11:38:14Z</time>
      </trkpt>
      <trkpt lat="45.35632" lon="5.89647">
        <ele>1667.06</ele>
        <time>2015-02-16T11:38:26Z</time>
      </trkpt>
      <trkpt lat="45.35634" lon="5.89653">
        <ele>1670.43</ele>
        <time>2015-02-16T11:38:38Z</time>
      </trkpt>
      <trkpt lat="45.35643" lon="5.89652">
        <ele>1673.79</ele>
        <time>2015-02-16T11:39:17Z</time>
      </trkpt>
      <trkpt lat="45.3565" lon="5.89657">
        <ele>1676.68</ele>
        <time>2015-02-16T11:39:30Z</time>
      </trkpt>
      <trkpt lat="45.3565" lon="5.89652">
        <ele>1679.56</ele>
        <time>2015-02-16T11:39:44Z</time>
      </trkpt>
      <trkpt lat="45.35647" lon="5.89646">
        <ele>1681.48</ele>
        <time>2015-02-16T11:39:54Z</time>
      </trkpt>
      <trkpt lat="45.35646" lon="5.89639">
        <ele>1683.41</ele>
        <time>2015-02-16T11:40:00Z</time>
      </trkpt>
      <trkpt lat="45.35652" lon="5.89627">
        <ele>1686.77</ele>
        <time>2015-02-16T11:40:13Z</time>
      </trkpt>
      <trkpt lat="45.35658" lon="5.89628">
        <ele>1689.65</ele>
        <time>2015-02-16T11:40:25Z</time>
      </trkpt>
      <trkpt lat="45.35659" lon="5.89626">
        <ele>1690.62</ele>
        <time>2015-02-16T11:40:27Z</time>
      </trkpt>
      <trkpt lat="45.35656" lon="5.89618">
        <ele>1692.06</ele>
        <time>2015-02-16T11:40:36Z</time>
      </trkpt>
      <trkpt lat="45.35655" lon="5.89615">
        <ele>1693.02</ele>
        <time>2015-02-16T11:40:40Z</time>
      </trkpt>
      <trkpt lat="45.3565" lon="5.89596">
        <ele>1695.9</ele>
        <time>2015-02-16T11:40:58Z</time>
      </trkpt>
      <trkpt lat="45.35644" lon="5.89585">
        <ele>1699.27</ele>
        <time>2015-02-16T11:41:12Z</time>
      </trkpt>
      <trkpt lat="45.35639" lon="5.89579">
        <ele>1702.63</ele>
        <time>2015-02-16T11:41:23Z</time>
      </trkpt>
      <trkpt lat="45.35637" lon="5.89576">
        <ele>1703.11</ele>
        <time>2015-02-16T11:41:27Z</time>
      </trkpt>
      <trkpt lat="45.35632" lon="5.89569">
        <ele>1705.04</ele>
        <time>2015-02-16T11:41:39Z</time>
      </trkpt>
      <trkpt lat="45.35629" lon="5.89564">
        <ele>1706.48</ele>
        <time>2015-02-16T11:41:46Z</time>
      </trkpt>
      <trkpt lat="45.3562" lon="5.8956">
        <ele>1707.92</ele>
        <time>2015-02-16T11:41:57Z</time>
      </trkpt>
      <trkpt lat="45.35612" lon="5.89559">
        <ele>1709.84</ele>
        <time>2015-02-16T11:42:09Z</time>
      </trkpt>
      <trkpt lat="45.35614" lon="5.89561">
        <ele>1712.73</ele>
        <time>2015-02-16T11:42:31Z</time>
      </trkpt>
      <trkpt lat="45.35623" lon="5.89563">
        <ele>1715.61</ele>
        <time>2015-02-16T11:42:47Z</time>
      </trkpt>
      <trkpt lat="45.3563" lon="5.89562">
        <ele>1718.01</ele>
        <time>2015-02-16T11:43:02Z</time>
      </trkpt>
      <trkpt lat="45.35631" lon="5.89561">
        <ele>1718.49</ele>
        <time>2015-02-16T11:43:14Z</time>
      </trkpt>
      <trkpt lat="45.35643" lon="5.89571">
        <ele>1718.01</ele>
        <time>2015-02-16T11:43:35Z</time>
      </trkpt>
      <trkpt lat="45.35637" lon="5.89578">
        <ele>1719.46</ele>
        <time>2015-02-16T11:43:45Z</time>
      </trkpt>
      <trkpt lat="45.35636" lon="5.89578">
        <ele>1719.94</ele>
        <time>2015-02-16T11:43:46Z</time>
      </trkpt>
      <trkpt lat="45.35637" lon="5.89584">
        <ele>1722.34</ele>
        <time>2015-02-16T11:43:58Z</time>
      </trkpt>
      <trkpt lat="45.35641" lon="5.89589">
        <ele>1725.22</ele>
        <time>2015-02-16T11:44:12Z</time>
      </trkpt>
      <trkpt lat="45.35654" lon="5.89588">
        <ele>1728.59</ele>
        <time>2015-02-16T11:44:27Z</time>
      </trkpt>
      <trkpt lat="45.35662" lon="5.89589">
        <ele>1731.47</ele>
        <time>2015-02-16T11:44:39Z</time>
      </trkpt>
      <trkpt lat="45.35668" lon="5.89587">
        <ele>1734.36</ele>
        <time>2015-02-16T11:44:50Z</time>
      </trkpt>
      <trkpt lat="45.35676" lon="5.89586">
        <ele>1737.72</ele>
        <time>2015-02-16T11:45:04Z</time>
      </trkpt>
      <trkpt lat="45.35683" lon="5.89588">
        <ele>1740.6</ele>
        <time>2015-02-16T11:45:17Z</time>
      </trkpt>
      <trkpt lat="45.35689" lon="5.89588">
        <ele>1743.49</ele>
        <time>2015-02-16T11:45:31Z</time>
      </trkpt>
      <trkpt lat="45.35691" lon="5.89584">
        <ele>1744.93</ele>
        <time>2015-02-16T11:45:43Z</time>
      </trkpt>
      <trkpt lat="45.35692" lon="5.8958">
        <ele>1745.41</ele>
        <time>2015-02-16T11:45:47Z</time>
      </trkpt>
      <trkpt lat="45.35688" lon="5.89571">
        <ele>1747.33</ele>
        <time>2015-02-16T11:45:58Z</time>
      </trkpt>
      <trkpt lat="45.35684" lon="5.8956">
        <ele>1749.26</ele>
        <time>2015-02-16T11:46:07Z</time>
      </trkpt>
      <trkpt lat="45.35682" lon="5.89555">
        <ele>1750.22</ele>
        <time>2015-02-16T11:46:12Z</time>
      </trkpt>
      <trkpt lat="45.35684" lon="5.89535">
        <ele>1752.62</ele>
        <time>2015-02-16T11:46:24Z</time>
      </trkpt>
      <trkpt lat="45.35686" lon="5.89533">
        <ele>1753.1</ele>
        <time>2015-02-16T11:46:27Z</time>
      </trkpt>
      <trkpt lat="45.35698" lon="5.89529">
        <ele>1755.5</ele>
        <time>2015-02-16T11:46:42Z</time>
      </trkpt>
      <trkpt lat="45.35707" lon="5.89527">
        <ele>1757.91</ele>
        <time>2015-02-16T11:46:55Z</time>
      </trkpt>
      <trkpt lat="45.35713" lon="5.8953">
        <ele>1760.79</ele>
        <time>2015-02-16T11:47:07Z</time>
      </trkpt>
      <trkpt lat="45.35718" lon="5.89543">
        <ele>1764.16</ele>
        <time>2015-02-16T11:47:19Z</time>
      </trkpt>
      <trkpt lat="45.35716" lon="5.89537">
        <ele>1766.08</ele>
        <time>2015-02-16T11:47:36Z</time>
      </trkpt>
      <trkpt lat="45.35714" lon="5.89529">
        <ele>1767.04</ele>
        <time>2015-02-16T11:47:45Z</time>
      </trkpt>
      <trkpt lat="45.35713" lon="5.89515">
        <ele>1768.48</ele>
        <time>2015-02-16T11:47:58Z</time>
      </trkpt>
      <trkpt lat="45.35713" lon="5.89508">
        <ele>1768.96</ele>
        <time>2015-02-16T11:48:14Z</time>
      </trkpt>
      <trkpt lat="45.35709" lon="5.89518">
        <ele>1768</ele>
        <time>2015-02-16T11:48:30Z</time>
      </trkpt>
      <trkpt lat="45.35719" lon="5.89521">
        <ele>1770.41</ele>
        <time>2015-02-16T11:48:47Z</time>
      </trkpt>
      <trkpt lat="45.35724" lon="5.89555">
        <ele>1773.29</ele>
        <time>2015-02-16T11:49:05Z</time>
      </trkpt>
      <trkpt lat="45.35733" lon="5.89582">
        <ele>1776.17</ele>
        <time>2015-02-16T11:49:23Z</time>
      </trkpt>
      <trkpt lat="45.35741" lon="5.89613">
        <ele>1779.54</ele>
        <time>2015-02-16T11:49:42Z</time>
      </trkpt>
      <trkpt lat="45.35743" lon="5.89637">
        <ele>1781.94</ele>
        <time>2015-02-16T11:49:56Z</time>
      </trkpt>
      <trkpt lat="45.35741" lon="5.8966">
        <ele>1783.86</ele>
        <time>2015-02-16T11:50:09Z</time>
      </trkpt>
      <trkpt lat="45.35742" lon="5.89671">
        <ele>1785.79</ele>
        <time>2015-02-16T11:50:20Z</time>
      </trkpt>
      <trkpt lat="45.35744" lon="5.89681">
        <ele>1787.71</ele>
        <time>2015-02-16T11:50:32Z</time>
      </trkpt>
      <trkpt lat="45.35748" lon="5.89683">
        <ele>1791.07</ele>
        <time>2015-02-16T11:50:47Z</time>
      </trkpt>
      <trkpt lat="45.35744" lon="5.89695">
        <ele>1793</ele>
        <time>2015-02-16T11:51:00Z</time>
      </trkpt>
      <trkpt lat="45.35745" lon="5.89704">
        <ele>1795.4</ele>
        <time>2015-02-16T11:51:15Z</time>
      </trkpt>
      <trkpt lat="45.35749" lon="5.89703">
        <ele>1796.36</ele>
        <time>2015-02-16T11:51:33Z</time>
      </trkpt>
      <trkpt lat="45.35747" lon="5.89708">
        <ele>1796.36</ele>
        <time>2015-02-16T11:51:48Z</time>
      </trkpt>
      <trkpt lat="45.35744" lon="5.89713">
        <ele>1795.88</ele>
        <time>2015-02-16T11:52:36Z</time>
      </trkpt>
      <trkpt lat="45.35747" lon="5.89711">
        <ele>1795.88</ele>
        <time>2015-02-16T11:52:41Z</time>
      </trkpt>
      <trkpt lat="45.35748" lon="5.89714">
        <ele>1797.32</ele>
        <time>2015-02-16T11:53:10Z</time>
      </trkpt>
      <trkpt lat="45.35744" lon="5.89716">
        <ele>1797.32</ele>
        <time>2015-02-16T11:53:34Z</time>
      </trkpt>
      <trkpt lat="45.35748" lon="5.89717">
        <ele>1797.32</ele>
        <time>2015-02-16T11:53:51Z</time>
      </trkpt>
      <trkpt lat="45.35742" lon="5.89742">
        <ele>1800.69</ele>
        <time>2015-02-16T11:54:14Z</time>
      </trkpt>
      <trkpt lat="45.35742" lon="5.89754">
        <ele>1801.65</ele>
        <time>2015-02-16T11:54:24Z</time>
      </trkpt>
      <trkpt lat="45.35751" lon="5.89772">
        <ele>1804.05</ele>
        <time>2015-02-16T11:54:41Z</time>
      </trkpt>
      <trkpt lat="45.35755" lon="5.89774">
        <ele>1804.53</ele>
        <time>2015-02-16T11:54:45Z</time>
      </trkpt>
      <trkpt lat="45.35761" lon="5.89785">
        <ele>1805.01</ele>
        <time>2015-02-16T11:54:54Z</time>
      </trkpt>
      <trkpt lat="45.35769" lon="5.89806">
        <ele>1806.94</ele>
        <time>2015-02-16T11:55:14Z</time>
      </trkpt>
      <trkpt lat="45.35771" lon="5.89802">
        <ele>1807.9</ele>
        <time>2015-02-16T11:56:06Z</time>
      </trkpt>
      <trkpt lat="45.35771" lon="5.89801">
        <ele>1807.42</ele>
        <time>2015-02-16T11:56:35Z</time>
      </trkpt>
      <trkpt lat="45.35792" lon="5.8979">
        <ele>1804.53</ele>
        <time>2015-02-16T11:56:43Z</time>
      </trkpt>
      <trkpt lat="45.35795" lon="5.89785">
        <ele>1803.09</ele>
        <time>2015-02-16T11:56:46Z</time>
      </trkpt>
      <trkpt lat="45.35808" lon="5.89769">
        <ele>1800.21</ele>
        <time>2015-02-16T11:56:54Z</time>
      </trkpt>
      <trkpt lat="45.35813" lon="5.89759">
        <ele>1803.09</ele>
        <time>2015-02-16T11:57:35Z</time>
      </trkpt>
      <trkpt lat="45.35815" lon="5.89752">
        <ele>1805.01</ele>
        <time>2015-02-16T11:57:44Z</time>
      </trkpt>
      <trkpt lat="45.35816" lon="5.89749">
        <ele>1805.97</ele>
        <time>2015-02-16T11:57:52Z</time>
      </trkpt>
      <trkpt lat="45.3581" lon="5.89753">
        <ele>1807.42</ele>
        <time>2015-02-16T11:58:01Z</time>
      </trkpt>
      <trkpt lat="45.3581" lon="5.89753">
        <ele>1807.9</ele>
        <time>2015-02-16T11:58:02Z</time>
      </trkpt>
      <trkpt lat="45.35813" lon="5.89741">
        <ele>1810.3</ele>
        <time>2015-02-16T11:58:12Z</time>
      </trkpt>
      <trkpt lat="45.3581" lon="5.89741">
        <ele>1811.74</ele>
        <time>2015-02-16T11:58:25Z</time>
      </trkpt>
      <trkpt lat="45.35809" lon="5.89739">
        <ele>1813.66</ele>
        <time>2015-02-16T11:58:35Z</time>
      </trkpt>
      <trkpt lat="45.35804" lon="5.89742">
        <ele>1815.11</ele>
        <time>2015-02-16T11:58:42Z</time>
      </trkpt>
      <trkpt lat="45.35808" lon="5.89729">
        <ele>1818.47</ele>
        <time>2015-02-16T11:58:56Z</time>
      </trkpt>
      <trkpt lat="45.3581" lon="5.89718">
        <ele>1821.35</ele>
        <time>2015-02-16T11:59:07Z</time>
      </trkpt>
      <trkpt lat="45.35814" lon="5.89701">
        <ele>1822.32</ele>
        <time>2015-02-16T11:59:11Z</time>
      </trkpt>
      <trkpt lat="45.35813" lon="5.89689">
        <ele>1825.68</ele>
        <time>2015-02-16T11:59:22Z</time>
      </trkpt>
      <trkpt lat="45.35817" lon="5.89687">
        <ele>1828.08</ele>
        <time>2015-02-16T11:59:36Z</time>
      </trkpt>
      <trkpt lat="45.35814" lon="5.89685">
        <ele>1827.6</ele>
        <time>2015-02-16T11:59:47Z</time>
      </trkpt>
      <trkpt lat="45.35813" lon="5.89683">
        <ele>1828.08</ele>
        <time>2015-02-16T12:00:03Z</time>
      </trkpt>
      <trkpt lat="45.35812" lon="5.89684">
        <ele>1828.08</ele>
        <time>2015-02-16T12:00:38Z</time>
      </trkpt>
      <trkpt lat="45.35813" lon="5.89684">
        <ele>1828.56</ele>
        <time>2015-02-16T12:00:53Z</time>
      </trkpt>
      <trkpt lat="45.35813" lon="5.89682">
        <ele>1829.05</ele>
        <time>2015-02-16T12:01:23Z</time>
      </trkpt>
      <trkpt lat="45.35813" lon="5.89681">
        <ele>1828.56</ele>
        <time>2015-02-16T12:01:39Z</time>
      </trkpt>
      <trkpt lat="45.35813" lon="5.89681">
        <ele>1828.56</ele>
        <time>2015-02-16T12:01:58Z</time>
      </trkpt>
      <trkpt lat="45.35813" lon="5.8968">
        <ele>1829.05</ele>
        <time>2015-02-16T12:02:26Z</time>
      </trkpt>
      <trkpt lat="45.35813" lon="5.8968">
        <ele>1828.56</ele>
        <time>2015-02-16T12:02:44Z</time>
      </trkpt>
      <trkpt lat="45.35812" lon="5.89681">
        <ele>1828.56</ele>
        <time>2015-02-16T12:03:20Z</time>
      </trkpt>
      <trkpt lat="45.35814" lon="5.89685">
        <ele>1828.56</ele>
        <time>2015-02-16T12:03:45Z</time>
      </trkpt>
      <trkpt lat="45.35819" lon="5.89696">
        <ele>1829.53</ele>
        <time>2015-02-16T12:03:57Z</time>
      </trkpt>
      <trkpt lat="45.35829" lon="5.89708">
        <ele>1830.49</ele>
        <time>2015-02-16T12:04:11Z</time>
      </trkpt>
      <trkpt lat="45.35842" lon="5.89721">
        <ele>1833.85</ele>
        <time>2015-02-16T12:04:28Z</time>
      </trkpt>
      <trkpt lat="45.35846" lon="5.89732">
        <ele>1833.85</ele>
        <time>2015-02-16T12:04:41Z</time>
      </trkpt>
      <trkpt lat="45.35846" lon="5.89731">
        <ele>1834.33</ele>
        <time>2015-02-16T12:05:16Z</time>
      </trkpt>
      <trkpt lat="45.35845" lon="5.89729">
        <ele>1833.85</ele>
        <time>2015-02-16T12:06:01Z</time>
      </trkpt>
      <trkpt lat="45.35846" lon="5.89727">
        <ele>1834.33</ele>
        <time>2015-02-16T12:06:32Z</time>
      </trkpt>
      <trkpt lat="45.35855" lon="5.89726">
        <ele>1832.41</ele>
        <time>2015-02-16T12:06:37Z</time>
      </trkpt>
      <trkpt lat="45.35866" lon="5.89731">
        <ele>1829.05</ele>
        <time>2015-02-16T12:06:46Z</time>
      </trkpt>
      <trkpt lat="45.35875" lon="5.89735">
        <ele>1830.01</ele>
        <time>2015-02-16T12:06:57Z</time>
      </trkpt>
      <trkpt lat="45.35882" lon="5.89738">
        <ele>1831.45</ele>
        <time>2015-02-16T12:07:09Z</time>
      </trkpt>
      <trkpt lat="45.35883" lon="5.89738">
        <ele>1831.45</ele>
        <time>2015-02-16T12:07:10Z</time>
      </trkpt>
      <trkpt lat="45.35903" lon="5.89738">
        <ele>1829.05</ele>
        <time>2015-02-16T12:07:23Z</time>
      </trkpt>
      <trkpt lat="45.35913" lon="5.8974">
        <ele>1825.2</ele>
        <time>2015-02-16T12:07:28Z</time>
      </trkpt>
      <trkpt lat="45.35914" lon="5.89741">
        <ele>1824.72</ele>
        <time>2015-02-16T12:07:30Z</time>
      </trkpt>
      <trkpt lat="45.35917" lon="5.89741">
        <ele>1824.24</ele>
        <time>2015-02-16T12:07:47Z</time>
      </trkpt>
      <trkpt lat="45.35916" lon="5.89744">
        <ele>1823.28</ele>
        <time>2015-02-16T12:08:05Z</time>
      </trkpt>
      <trkpt lat="45.35916" lon="5.89742">
        <ele>1824.24</ele>
        <time>2015-02-16T12:10:25Z</time>
      </trkpt>
      <trkpt lat="45.35937" lon="5.89755">
        <ele>1821.84</ele>
        <time>2015-02-16T12:10:50Z</time>
      </trkpt>
      <trkpt lat="45.35948" lon="5.89756">
        <ele>1818.95</ele>
        <time>2015-02-16T12:10:52Z</time>
      </trkpt>
      <trkpt lat="45.35963" lon="5.8974">
        <ele>1815.11</ele>
        <time>2015-02-16T12:10:55Z</time>
      </trkpt>
      <trkpt lat="45.35975" lon="5.89739">
        <ele>1805.97</ele>
        <time>2015-02-16T12:10:58Z</time>
      </trkpt>
      <trkpt lat="45.35978" lon="5.89738">
        <ele>1803.09</ele>
        <time>2015-02-16T12:10:59Z</time>
      </trkpt>
      <trkpt lat="45.35986" lon="5.89732">
        <ele>1798.28</ele>
        <time>2015-02-16T12:11:01Z</time>
      </trkpt>
      <trkpt lat="45.35993" lon="5.89719">
        <ele>1792.52</ele>
        <time>2015-02-16T12:11:03Z</time>
      </trkpt>
      <trkpt lat="45.35997" lon="5.89712">
        <ele>1792.52</ele>
        <time>2015-02-16T12:11:04Z</time>
      </trkpt>
      <trkpt lat="45.36" lon="5.89703">
        <ele>1788.19</ele>
        <time>2015-02-16T12:11:05Z</time>
      </trkpt>
      <trkpt lat="45.36004" lon="5.89697">
        <ele>1783.86</ele>
        <time>2015-02-16T12:11:06Z</time>
      </trkpt>
      <trkpt lat="45.36007" lon="5.89689">
        <ele>1779.54</ele>
        <time>2015-02-16T12:11:07Z</time>
      </trkpt>
      <trkpt lat="45.36008" lon="5.89681">
        <ele>1774.73</ele>
        <time>2015-02-16T12:11:08Z</time>
      </trkpt>
      <trkpt lat="45.36012" lon="5.89676">
        <ele>1770.41</ele>
        <time>2015-02-16T12:11:09Z</time>
      </trkpt>
      <trkpt lat="45.3602" lon="5.89663">
        <ele>1762.23</ele>
        <time>2015-02-16T12:11:11Z</time>
      </trkpt>
      <trkpt lat="45.36025" lon="5.89645">
        <ele>1757.91</ele>
        <time>2015-02-16T12:11:13Z</time>
      </trkpt>
      <trkpt lat="45.36027" lon="5.89635">
        <ele>1754.06</ele>
        <time>2015-02-16T12:11:14Z</time>
      </trkpt>
      <trkpt lat="45.36028" lon="5.89625">
        <ele>1749.74</ele>
        <time>2015-02-16T12:11:15Z</time>
      </trkpt>
      <trkpt lat="45.36029" lon="5.89605">
        <ele>1740.6</ele>
        <time>2015-02-16T12:11:17Z</time>
      </trkpt>
      <trkpt lat="45.3603" lon="5.89597">
        <ele>1736.76</ele>
        <time>2015-02-16T12:11:18Z</time>
      </trkpt>
      <trkpt lat="45.36034" lon="5.8958">
        <ele>1729.55</ele>
        <time>2015-02-16T12:11:20Z</time>
      </trkpt>
      <trkpt lat="45.36038" lon="5.89564">
        <ele>1724.74</ele>
        <time>2015-02-16T12:11:22Z</time>
      </trkpt>
      <trkpt lat="45.36041" lon="5.89551">
        <ele>1722.82</ele>
        <time>2015-02-16T12:11:24Z</time>
      </trkpt>
      <trkpt lat="45.36039" lon="5.89525">
        <ele>1717.05</ele>
        <time>2015-02-16T12:11:28Z</time>
      </trkpt>
      <trkpt lat="45.36037" lon="5.89513">
        <ele>1713.69</ele>
        <time>2015-02-16T12:11:31Z</time>
      </trkpt>
      <trkpt lat="45.36037" lon="5.89501">
        <ele>1711.28</ele>
        <time>2015-02-16T12:11:35Z</time>
      </trkpt>
      <trkpt lat="45.36039" lon="5.89496">
        <ele>1710.32</ele>
        <time>2015-02-16T12:11:48Z</time>
      </trkpt>
      <trkpt lat="45.36038" lon="5.89495">
        <ele>1709.84</ele>
        <time>2015-02-16T12:12:27Z</time>
      </trkpt>
      <trkpt lat="45.36039" lon="5.89494">
        <ele>1711.76</ele>
        <time>2015-02-16T12:13:58Z</time>
      </trkpt>
      <trkpt lat="45.3604" lon="5.8951">
        <ele>1713.69</ele>
        <time>2015-02-16T12:15:54Z</time>
      </trkpt>
      <trkpt lat="45.3604" lon="5.89517">
        <ele>1714.17</ele>
        <time>2015-02-16T12:15:58Z</time>
      </trkpt>
      <trkpt lat="45.3604" lon="5.89523">
        <ele>1714.65</ele>
        <time>2015-02-16T12:16:03Z</time>
      </trkpt>
      <trkpt lat="45.3604" lon="5.89535">
        <ele>1717.05</ele>
        <time>2015-02-16T12:16:16Z</time>
      </trkpt>
      <trkpt lat="45.36041" lon="5.89543">
        <ele>1718.49</ele>
        <time>2015-02-16T12:16:25Z</time>
      </trkpt>
      <trkpt lat="45.36041" lon="5.89552">
        <ele>1719.94</ele>
        <time>2015-02-16T12:16:37Z</time>
      </trkpt>
      <trkpt lat="45.3604" lon="5.8956">
        <ele>1721.38</ele>
        <time>2015-02-16T12:16:48Z</time>
      </trkpt>
      <trkpt lat="45.36038" lon="5.89568">
        <ele>1722.82</ele>
        <time>2015-02-16T12:16:59Z</time>
      </trkpt>
      <trkpt lat="45.36036" lon="5.89578">
        <ele>1724.74</ele>
        <time>2015-02-16T12:17:12Z</time>
      </trkpt>
      <trkpt lat="45.36034" lon="5.8959">
        <ele>1726.67</ele>
        <time>2015-02-16T12:17:25Z</time>
      </trkpt>
      <trkpt lat="45.36033" lon="5.896">
        <ele>1728.59</ele>
        <time>2015-02-16T12:17:36Z</time>
      </trkpt>
      <trkpt lat="45.36032" lon="5.89606">
        <ele>1730.03</ele>
        <time>2015-02-16T12:17:45Z</time>
      </trkpt>
      <trkpt lat="45.36037" lon="5.89611">
        <ele>1730.99</ele>
        <time>2015-02-16T12:17:55Z</time>
      </trkpt>
      <trkpt lat="45.36043" lon="5.89623">
        <ele>1733.88</ele>
        <time>2015-02-16T12:18:12Z</time>
      </trkpt>
      <trkpt lat="45.36045" lon="5.89627">
        <ele>1735.32</ele>
        <time>2015-02-16T12:18:24Z</time>
      </trkpt>
      <trkpt lat="45.36046" lon="5.89631">
        <ele>1737.72</ele>
        <time>2015-02-16T12:18:36Z</time>
      </trkpt>
      <trkpt lat="45.36046" lon="5.8963">
        <ele>1738.2</ele>
        <time>2015-02-16T12:18:52Z</time>
      </trkpt>
      <trkpt lat="45.36043" lon="5.89634">
        <ele>1738.68</ele>
        <time>2015-02-16T12:19:25Z</time>
      </trkpt>
      <trkpt lat="45.36038" lon="5.89639">
        <ele>1740.6</ele>
        <time>2015-02-16T12:19:37Z</time>
      </trkpt>
      <trkpt lat="45.36034" lon="5.89642">
        <ele>1741.57</ele>
        <time>2015-02-16T12:19:51Z</time>
      </trkpt>
      <trkpt lat="45.36028" lon="5.89645">
        <ele>1743.49</ele>
        <time>2015-02-16T12:20:03Z</time>
      </trkpt>
      <trkpt lat="45.36033" lon="5.89652">
        <ele>1744.93</ele>
        <time>2015-02-16T12:20:15Z</time>
      </trkpt>
      <trkpt lat="45.36038" lon="5.89656">
        <ele>1746.85</ele>
        <time>2015-02-16T12:20:26Z</time>
      </trkpt>
      <trkpt lat="45.36041" lon="5.89662">
        <ele>1748.29</ele>
        <time>2015-02-16T12:20:35Z</time>
      </trkpt>
      <trkpt lat="45.36041" lon="5.89663">
        <ele>1748.29</ele>
        <time>2015-02-16T12:20:36Z</time>
      </trkpt>
      <trkpt lat="45.3604" lon="5.89666">
        <ele>1750.22</ele>
        <time>2015-02-16T12:20:47Z</time>
      </trkpt>
      <trkpt lat="45.36034" lon="5.89668">
        <ele>1751.18</ele>
        <time>2015-02-16T12:20:58Z</time>
      </trkpt>
      <trkpt lat="45.36029" lon="5.89671">
        <ele>1753.58</ele>
        <time>2015-02-16T12:21:11Z</time>
      </trkpt>
      <trkpt lat="45.36031" lon="5.89676">
        <ele>1754.54</ele>
        <time>2015-02-16T12:21:25Z</time>
      </trkpt>
      <trkpt lat="45.36035" lon="5.8968">
        <ele>1755.99</ele>
        <time>2015-02-16T12:21:34Z</time>
      </trkpt>
      <trkpt lat="45.36036" lon="5.89681">
        <ele>1756.47</ele>
        <time>2015-02-16T12:21:37Z</time>
      </trkpt>
      <trkpt lat="45.36038" lon="5.89685">
        <ele>1756.95</ele>
        <time>2015-02-16T12:21:43Z</time>
      </trkpt>
      <trkpt lat="45.36041" lon="5.89689">
        <ele>1758.87</ele>
        <time>2015-02-16T12:21:52Z</time>
      </trkpt>
      <trkpt lat="45.36043" lon="5.89691">
        <ele>1759.83</ele>
        <time>2015-02-16T12:22:00Z</time>
      </trkpt>
      <trkpt lat="45.36038" lon="5.89693">
        <ele>1761.27</ele>
        <time>2015-02-16T12:22:11Z</time>
      </trkpt>
      <trkpt lat="45.36032" lon="5.89694">
        <ele>1762.71</ele>
        <time>2015-02-16T12:22:22Z</time>
      </trkpt>
      <trkpt lat="45.36026" lon="5.89695">
        <ele>1764.16</ele>
        <time>2015-02-16T12:22:33Z</time>
      </trkpt>
      <trkpt lat="45.36019" lon="5.89696">
        <ele>1766.08</ele>
        <time>2015-02-16T12:22:45Z</time>
      </trkpt>
      <trkpt lat="45.36013" lon="5.89697">
        <ele>1768</ele>
        <time>2015-02-16T12:22:57Z</time>
      </trkpt>
      <trkpt lat="45.36012" lon="5.89698">
        <ele>1769.44</ele>
        <time>2015-02-16T12:23:08Z</time>
      </trkpt>
      <trkpt lat="45.36018" lon="5.89708">
        <ele>1770.89</ele>
        <time>2015-02-16T12:23:22Z</time>
      </trkpt>
      <trkpt lat="45.36022" lon="5.89713">
        <ele>1772.33</ele>
        <time>2015-02-16T12:23:31Z</time>
      </trkpt>
      <trkpt lat="45.36026" lon="5.89717">
        <ele>1774.25</ele>
        <time>2015-02-16T12:23:41Z</time>
      </trkpt>
      <trkpt lat="45.36032" lon="5.8972">
        <ele>1775.69</ele>
        <time>2015-02-16T12:23:52Z</time>
      </trkpt>
      <trkpt lat="45.3603" lon="5.89728">
        <ele>1778.1</ele>
        <time>2015-02-16T12:24:12Z</time>
      </trkpt>
      <trkpt lat="45.36028" lon="5.89729">
        <ele>1778.58</ele>
        <time>2015-02-16T12:24:18Z</time>
      </trkpt>
      <trkpt lat="45.3602" lon="5.89728">
        <ele>1779.54</ele>
        <time>2015-02-16T12:24:30Z</time>
      </trkpt>
      <trkpt lat="45.36012" lon="5.89728">
        <ele>1780.98</ele>
        <time>2015-02-16T12:24:43Z</time>
      </trkpt>
      <trkpt lat="45.36004" lon="5.89728">
        <ele>1782.9</ele>
        <time>2015-02-16T12:24:57Z</time>
      </trkpt>
      <trkpt lat="45.36005" lon="5.89731">
        <ele>1784.34</ele>
        <time>2015-02-16T12:25:09Z</time>
      </trkpt>
      <trkpt lat="45.3601" lon="5.89737">
        <ele>1785.79</ele>
        <time>2015-02-16T12:25:20Z</time>
      </trkpt>
      <trkpt lat="45.36013" lon="5.89742">
        <ele>1787.23</ele>
        <time>2015-02-16T12:25:30Z</time>
      </trkpt>
      <trkpt lat="45.36021" lon="5.89749">
        <ele>1789.15</ele>
        <time>2015-02-16T12:25:45Z</time>
      </trkpt>
      <trkpt lat="45.36024" lon="5.8975">
        <ele>1791.07</ele>
        <time>2015-02-16T12:25:57Z</time>
      </trkpt>
      <trkpt lat="45.36017" lon="5.89753">
        <ele>1792.52</ele>
        <time>2015-02-16T12:26:11Z</time>
      </trkpt>
      <trkpt lat="45.3601" lon="5.89756">
        <ele>1793.96</ele>
        <time>2015-02-16T12:26:23Z</time>
      </trkpt>
      <trkpt lat="45.36005" lon="5.89757">
        <ele>1795.4</ele>
        <time>2015-02-16T12:26:33Z</time>
      </trkpt>
      <trkpt lat="45.35997" lon="5.89757">
        <ele>1796.84</ele>
        <time>2015-02-16T12:26:45Z</time>
      </trkpt>
      <trkpt lat="45.35995" lon="5.89758">
        <ele>1797.32</ele>
        <time>2015-02-16T12:26:56Z</time>
      </trkpt>
      <trkpt lat="45.35996" lon="5.89757">
        <ele>1797.8</ele>
        <time>2015-02-16T12:27:38Z</time>
      </trkpt>
      <trkpt lat="45.35998" lon="5.89761">
        <ele>1798.28</ele>
        <time>2015-02-16T12:28:04Z</time>
      </trkpt>
      <trkpt lat="45.36006" lon="5.89771">
        <ele>1801.17</ele>
        <time>2015-02-16T12:28:22Z</time>
      </trkpt>
      <trkpt lat="45.36018" lon="5.89781">
        <ele>1803.57</ele>
        <time>2015-02-16T12:28:42Z</time>
      </trkpt>
      <trkpt lat="45.36027" lon="5.89785">
        <ele>1806.45</ele>
        <time>2015-02-16T12:29:02Z</time>
      </trkpt>
      <trkpt lat="45.36031" lon="5.8979">
        <ele>1808.86</ele>
        <time>2015-02-16T12:29:13Z</time>
      </trkpt>
      <trkpt lat="45.36031" lon="5.8979">
        <ele>1808.86</ele>
        <time>2015-02-16T12:29:15Z</time>
      </trkpt>
      <trkpt lat="45.36034" lon="5.89798">
        <ele>1811.74</ele>
        <time>2015-02-16T12:29:29Z</time>
      </trkpt>
      <trkpt lat="45.36038" lon="5.89805">
        <ele>1814.15</ele>
        <time>2015-02-16T12:29:43Z</time>
      </trkpt>
      <trkpt lat="45.3604" lon="5.89806">
        <ele>1814.63</ele>
        <time>2015-02-16T12:29:45Z</time>
      </trkpt>
      <trkpt lat="45.36043" lon="5.89811">
        <ele>1816.07</ele>
        <time>2015-02-16T12:29:55Z</time>
      </trkpt>
      <trkpt lat="45.36037" lon="5.89819">
        <ele>1819.43</ele>
        <time>2015-02-16T12:30:17Z</time>
      </trkpt>
      <trkpt lat="45.36036" lon="5.89823">
        <ele>1820.87</ele>
        <time>2015-02-16T12:30:27Z</time>
      </trkpt>
      <trkpt lat="45.36034" lon="5.8983">
        <ele>1822.32</ele>
        <time>2015-02-16T12:30:38Z</time>
      </trkpt>
      <trkpt lat="45.36034" lon="5.8983">
        <ele>1822.8</ele>
        <time>2015-02-16T12:30:39Z</time>
      </trkpt>
      <trkpt lat="45.36031" lon="5.89838">
        <ele>1824.72</ele>
        <time>2015-02-16T12:30:49Z</time>
      </trkpt>
      <trkpt lat="45.36022" lon="5.89841">
        <ele>1825.2</ele>
        <time>2015-02-16T12:31:02Z</time>
      </trkpt>
      <trkpt lat="45.36018" lon="5.89845">
        <ele>1827.12</ele>
        <time>2015-02-16T12:31:21Z</time>
      </trkpt>
      <trkpt lat="45.36017" lon="5.89846">
        <ele>1826.64</ele>
        <time>2015-02-16T12:31:35Z</time>
      </trkpt>
      <trkpt lat="45.36025" lon="5.89847">
        <ele>1827.12</ele>
        <time>2015-02-16T12:31:49Z</time>
      </trkpt>
      <trkpt lat="45.3603" lon="5.8985">
        <ele>1828.08</ele>
        <time>2015-02-16T12:31:57Z</time>
      </trkpt>
      <trkpt lat="45.36032" lon="5.89855">
        <ele>1828.56</ele>
        <time>2015-02-16T12:32:08Z</time>
      </trkpt>
      <trkpt lat="45.36031" lon="5.89853">
        <ele>1828.56</ele>
        <time>2015-02-16T12:32:12Z</time>
      </trkpt>
      <trkpt lat="45.36018" lon="5.89848">
        <ele>1827.12</ele>
        <time>2015-02-16T12:32:25Z</time>
      </trkpt>
      <trkpt lat="45.36014" lon="5.89851">
        <ele>1826.64</ele>
        <time>2015-02-16T12:32:31Z</time>
      </trkpt>
      <trkpt lat="45.36013" lon="5.89857">
        <ele>1824.72</ele>
        <time>2015-02-16T12:32:42Z</time>
      </trkpt>
      <trkpt lat="45.36017" lon="5.89863">
        <ele>1822.32</ele>
        <time>2015-02-16T12:32:56Z</time>
      </trkpt>
      <trkpt lat="45.36015" lon="5.89869">
        <ele>1821.84</ele>
        <time>2015-02-16T12:33:23Z</time>
      </trkpt>
      <trkpt lat="45.36015" lon="5.89854">
        <ele>1825.2</ele>
        <time>2015-02-16T12:33:40Z</time>
      </trkpt>
      <trkpt lat="45.36013" lon="5.8985">
        <ele>1825.68</ele>
        <time>2015-02-16T12:33:44Z</time>
      </trkpt>
      <trkpt lat="45.36011" lon="5.89847">
        <ele>1826.16</ele>
        <time>2015-02-16T12:33:48Z</time>
      </trkpt>
      <trkpt lat="45.36005" lon="5.89841">
        <ele>1827.6</ele>
        <time>2015-02-16T12:34:00Z</time>
      </trkpt>
      <trkpt lat="45.35994" lon="5.89836">
        <ele>1829.05</ele>
        <time>2015-02-16T12:34:17Z</time>
      </trkpt>
      <trkpt lat="45.3599" lon="5.89838">
        <ele>1829.53</ele>
        <time>2015-02-16T12:34:25Z</time>
      </trkpt>
      <trkpt lat="45.35979" lon="5.89832">
        <ele>1830.97</ele>
        <time>2015-02-16T12:34:45Z</time>
      </trkpt>
      <trkpt lat="45.35971" lon="5.89838">
        <ele>1834.33</ele>
        <time>2015-02-16T12:35:02Z</time>
      </trkpt>
      <trkpt lat="45.35962" lon="5.89846">
        <ele>1834.81</ele>
        <time>2015-02-16T12:35:19Z</time>
      </trkpt>
      <trkpt lat="45.35962" lon="5.89841">
        <ele>1834.81</ele>
        <time>2015-02-16T12:35:22Z</time>
      </trkpt>
      <trkpt lat="45.35959" lon="5.89837">
        <ele>1832.41</ele>
        <time>2015-02-16T12:35:37Z</time>
      </trkpt>
      <trkpt lat="45.35954" lon="5.89832">
        <ele>1832.41</ele>
        <time>2015-02-16T12:35:47Z</time>
      </trkpt>
      <trkpt lat="45.35948" lon="5.89822">
        <ele>1834.81</ele>
        <time>2015-02-16T12:36:01Z</time>
      </trkpt>
      <trkpt lat="45.3594" lon="5.89815">
        <ele>1834.81</ele>
        <time>2015-02-16T12:36:18Z</time>
      </trkpt>
      <trkpt lat="45.35936" lon="5.89806">
        <ele>1833.85</ele>
        <time>2015-02-16T12:36:30Z</time>
      </trkpt>
      <trkpt lat="45.35931" lon="5.89798">
        <ele>1833.85</ele>
        <time>2015-02-16T12:36:45Z</time>
      </trkpt>
      <trkpt lat="45.35927" lon="5.8979">
        <ele>1834.33</ele>
        <time>2015-02-16T12:36:57Z</time>
      </trkpt>
      <trkpt lat="45.35917" lon="5.89769">
        <ele>1832.89</ele>
        <time>2015-02-16T12:37:25Z</time>
      </trkpt>
      <trkpt lat="45.35907" lon="5.8976">
        <ele>1835.29</ele>
        <time>2015-02-16T12:37:50Z</time>
      </trkpt>
      <trkpt lat="45.35895" lon="5.89757">
        <ele>1838.18</ele>
        <time>2015-02-16T12:38:14Z</time>
      </trkpt>
      <trkpt lat="45.35887" lon="5.89761">
        <ele>1839.62</ele>
        <time>2015-02-16T12:38:32Z</time>
      </trkpt>
      <trkpt lat="45.35882" lon="5.89753">
        <ele>1839.62</ele>
        <time>2015-02-16T12:38:40Z</time>
      </trkpt>
      <trkpt lat="45.3587" lon="5.89738">
        <ele>1836.26</ele>
        <time>2015-02-16T12:38:50Z</time>
      </trkpt>
      <trkpt lat="45.35859" lon="5.89732">
        <ele>1834.33</ele>
        <time>2015-02-16T12:39:01Z</time>
      </trkpt>
      <trkpt lat="45.35855" lon="5.89733">
        <ele>1834.33</ele>
        <time>2015-02-16T12:39:11Z</time>
      </trkpt>
      <trkpt lat="45.35849" lon="5.89732">
        <ele>1836.26</ele>
        <time>2015-02-16T12:39:23Z</time>
      </trkpt>
      <trkpt lat="45.35847" lon="5.89731">
        <ele>1837.7</ele>
        <time>2015-02-16T12:39:36Z</time>
      </trkpt>
      <trkpt lat="45.35846" lon="5.89732">
        <ele>1837.7</ele>
        <time>2015-02-16T12:39:52Z</time>
      </trkpt>
      <trkpt lat="45.35847" lon="5.89729">
        <ele>1837.7</ele>
        <time>2015-02-16T12:40:06Z</time>
      </trkpt>
      <trkpt lat="45.35865" lon="5.89729">
        <ele>1834.33</ele>
        <time>2015-02-16T12:40:14Z</time>
      </trkpt>
      <trkpt lat="45.35865" lon="5.8973">
        <ele>1833.85</ele>
        <time>2015-02-16T12:40:15Z</time>
      </trkpt>
      <trkpt lat="45.35875" lon="5.89734">
        <ele>1835.29</ele>
        <time>2015-02-16T12:40:28Z</time>
      </trkpt>
      <trkpt lat="45.35876" lon="5.89734">
        <ele>1835.29</ele>
        <time>2015-02-16T12:40:29Z</time>
      </trkpt>
      <trkpt lat="45.35881" lon="5.89734">
        <ele>1835.77</ele>
        <time>2015-02-16T12:40:33Z</time>
      </trkpt>
      <trkpt lat="45.35887" lon="5.89736">
        <ele>1835.77</ele>
        <time>2015-02-16T12:40:39Z</time>
      </trkpt>
      <trkpt lat="45.3591" lon="5.89738">
        <ele>1832.89</ele>
        <time>2015-02-16T12:40:53Z</time>
      </trkpt>
      <trkpt lat="45.35916" lon="5.89741">
        <ele>1829.53</ele>
        <time>2015-02-16T12:40:57Z</time>
      </trkpt>
      <trkpt lat="45.35926" lon="5.89757">
        <ele>1827.12</ele>
        <time>2015-02-16T12:41:12Z</time>
      </trkpt>
      <trkpt lat="45.3593" lon="5.89767">
        <ele>1830.01</ele>
        <time>2015-02-16T12:41:35Z</time>
      </trkpt>
      <trkpt lat="45.35932" lon="5.89774">
        <ele>1831.45</ele>
        <time>2015-02-16T12:42:33Z</time>
      </trkpt>
      <trkpt lat="45.35937" lon="5.89776">
        <ele>1828.08</ele>
        <time>2015-02-16T12:43:31Z</time>
      </trkpt>
      <trkpt lat="45.35939" lon="5.89779">
        <ele>1826.64</ele>
        <time>2015-02-16T12:44:23Z</time>
      </trkpt>
      <trkpt lat="45.35954" lon="5.89786">
        <ele>1826.16</ele>
        <time>2015-02-16T12:45:32Z</time>
      </trkpt>
      <trkpt lat="45.35981" lon="5.89812">
        <ele>1825.68</ele>
        <time>2015-02-16T12:46:46Z</time>
      </trkpt>
      <trkpt lat="45.35997" lon="5.89823">
        <ele>1826.16</ele>
        <time>2015-02-16T12:47:05Z</time>
      </trkpt>
      <trkpt lat="45.36" lon="5.89825">
        <ele>1827.6</ele>
        <time>2015-02-16T12:47:59Z</time>
      </trkpt>
      <trkpt lat="45.36009" lon="5.89848">
        <ele>1824.24</ele>
        <time>2015-02-16T12:48:08Z</time>
      </trkpt>
      <trkpt lat="45.36015" lon="5.89857">
        <ele>1820.87</ele>
        <time>2015-02-16T12:48:15Z</time>
      </trkpt>
      <trkpt lat="45.36014" lon="5.89862">
        <ele>1817.99</ele>
        <time>2015-02-16T12:48:20Z</time>
      </trkpt>
      <trkpt lat="45.36012" lon="5.8987">
        <ele>1814.15</ele>
        <time>2015-02-16T12:48:28Z</time>
      </trkpt>
      <trkpt lat="45.36011" lon="5.89877">
        <ele>1812.7</ele>
        <time>2015-02-16T12:48:31Z</time>
      </trkpt>
      <trkpt lat="45.36013" lon="5.89881">
        <ele>1810.3</ele>
        <time>2015-02-16T12:48:36Z</time>
      </trkpt>
      <trkpt lat="45.36015" lon="5.89885">
        <ele>1809.34</ele>
        <time>2015-02-16T12:48:41Z</time>
      </trkpt>
      <trkpt lat="45.36014" lon="5.89895">
        <ele>1805.97</ele>
        <time>2015-02-16T12:48:54Z</time>
      </trkpt>
      <trkpt lat="45.36014" lon="5.89901">
        <ele>1805.01</ele>
        <time>2015-02-16T12:48:58Z</time>
      </trkpt>
      <trkpt lat="45.36011" lon="5.89917">
        <ele>1803.57</ele>
        <time>2015-02-16T12:49:19Z</time>
      </trkpt>
      <trkpt lat="45.36005" lon="5.8993">
        <ele>1803.09</ele>
        <time>2015-02-16T12:49:48Z</time>
      </trkpt>
      <trkpt lat="45.36008" lon="5.89936">
        <ele>1802.13</ele>
        <time>2015-02-16T12:50:06Z</time>
      </trkpt>
      <trkpt lat="45.36007" lon="5.89941">
        <ele>1800.69</ele>
        <time>2015-02-16T12:50:23Z</time>
      </trkpt>
      <trkpt lat="45.36007" lon="5.89944">
        <ele>1800.69</ele>
        <time>2015-02-16T12:50:52Z</time>
      </trkpt>
      <trkpt lat="45.36015" lon="5.89936">
        <ele>1800.21</ele>
        <time>2015-02-16T12:51:27Z</time>
      </trkpt>
      <trkpt lat="45.36017" lon="5.89936">
        <ele>1800.69</ele>
        <time>2015-02-16T12:51:55Z</time>
      </trkpt>
      <trkpt lat="45.36026" lon="5.89924">
        <ele>1801.17</ele>
        <time>2015-02-16T12:52:27Z</time>
      </trkpt>
      <trkpt lat="45.36018" lon="5.89939">
        <ele>1798.76</ele>
        <time>2015-02-16T12:53:01Z</time>
      </trkpt>
      <trkpt lat="45.36007" lon="5.89957">
        <ele>1795.4</ele>
        <time>2015-02-16T12:53:07Z</time>
      </trkpt>
      <trkpt lat="45.36008" lon="5.89959">
        <ele>1793</ele>
        <time>2015-02-16T12:53:12Z</time>
      </trkpt>
      <trkpt lat="45.36005" lon="5.89971">
        <ele>1790.11</ele>
        <time>2015-02-16T12:53:18Z</time>
      </trkpt>
      <trkpt lat="45.36006" lon="5.89973">
        <ele>1785.79</ele>
        <time>2015-02-16T12:53:21Z</time>
      </trkpt>
      <trkpt lat="45.36005" lon="5.89978">
        <ele>1783.86</ele>
        <time>2015-02-16T12:53:24Z</time>
      </trkpt>
      <trkpt lat="45.36008" lon="5.89995">
        <ele>1779.06</ele>
        <time>2015-02-16T12:53:28Z</time>
      </trkpt>
      <trkpt lat="45.36011" lon="5.89996">
        <ele>1779.06</ele>
        <time>2015-02-16T12:53:29Z</time>
      </trkpt>
      <trkpt lat="45.36012" lon="5.89998">
        <ele>1775.69</ele>
        <time>2015-02-16T12:53:31Z</time>
      </trkpt>
      <trkpt lat="45.36008" lon="5.90009">
        <ele>1772.33</ele>
        <time>2015-02-16T12:53:35Z</time>
      </trkpt>
      <trkpt lat="45.36006" lon="5.90011">
        <ele>1769.92</ele>
        <time>2015-02-16T12:53:39Z</time>
      </trkpt>
      <trkpt lat="45.36004" lon="5.90014">
        <ele>1769.92</ele>
        <time>2015-02-16T12:53:52Z</time>
      </trkpt>
      <trkpt lat="45.36001" lon="5.90033">
        <ele>1767.04</ele>
        <time>2015-02-16T12:54:22Z</time>
      </trkpt>
      <trkpt lat="45.36002" lon="5.90034">
        <ele>1762.71</ele>
        <time>2015-02-16T12:54:24Z</time>
      </trkpt>
      <trkpt lat="45.36002" lon="5.90035">
        <ele>1758.87</ele>
        <time>2015-02-16T12:54:27Z</time>
      </trkpt>
      <trkpt lat="45.36002" lon="5.90035">
        <ele>1758.87</ele>
        <time>2015-02-16T12:54:28Z</time>
      </trkpt>
      <trkpt lat="45.35999" lon="5.90058">
        <ele>1754.06</ele>
        <time>2015-02-16T12:54:32Z</time>
      </trkpt>
      <trkpt lat="45.35998" lon="5.90063">
        <ele>1754.06</ele>
        <time>2015-02-16T12:54:33Z</time>
      </trkpt>
      <trkpt lat="45.35999" lon="5.90075">
        <ele>1748.78</ele>
        <time>2015-02-16T12:54:35Z</time>
      </trkpt>
      <trkpt lat="45.35999" lon="5.9009">
        <ele>1742.53</ele>
        <time>2015-02-16T12:54:37Z</time>
      </trkpt>
      <trkpt lat="45.36" lon="5.90104">
        <ele>1736.28</ele>
        <time>2015-02-16T12:54:39Z</time>
      </trkpt>
      <trkpt lat="45.36" lon="5.90109">
        <ele>1732.91</ele>
        <time>2015-02-16T12:54:40Z</time>
      </trkpt>
      <trkpt lat="45.36" lon="5.90115">
        <ele>1729.55</ele>
        <time>2015-02-16T12:54:41Z</time>
      </trkpt>
      <trkpt lat="45.35999" lon="5.90122">
        <ele>1726.18</ele>
        <time>2015-02-16T12:54:42Z</time>
      </trkpt>
      <trkpt lat="45.35997" lon="5.90133">
        <ele>1720.42</ele>
        <time>2015-02-16T12:54:44Z</time>
      </trkpt>
      <trkpt lat="45.35997" lon="5.90139">
        <ele>1720.42</ele>
        <time>2015-02-16T12:54:45Z</time>
      </trkpt>
      <trkpt lat="45.36" lon="5.9015">
        <ele>1715.13</ele>
        <time>2015-02-16T12:54:47Z</time>
      </trkpt>
      <trkpt lat="45.36002" lon="5.90156">
        <ele>1709.84</ele>
        <time>2015-02-16T12:54:49Z</time>
      </trkpt>
      <trkpt lat="45.36" lon="5.90163">
        <ele>1706</ele>
        <time>2015-02-16T12:54:51Z</time>
      </trkpt>
      <trkpt lat="45.35999" lon="5.90177">
        <ele>1702.63</ele>
        <time>2015-02-16T12:54:56Z</time>
      </trkpt>
      <trkpt lat="45.35998" lon="5.90186">
        <ele>1699.27</ele>
        <time>2015-02-16T12:54:59Z</time>
      </trkpt>
      <trkpt lat="45.35992" lon="5.9019">
        <ele>1695.42</ele>
        <time>2015-02-16T12:55:02Z</time>
      </trkpt>
      <trkpt lat="45.35992" lon="5.90192">
        <ele>1694.46</ele>
        <time>2015-02-16T12:55:04Z</time>
      </trkpt>
      <trkpt lat="45.35991" lon="5.90196">
        <ele>1697.34</ele>
        <time>2015-02-16T12:55:47Z</time>
      </trkpt>
      <trkpt lat="45.35989" lon="5.9021">
        <ele>1693.98</ele>
        <time>2015-02-16T12:55:55Z</time>
      </trkpt>
      <trkpt lat="45.35976" lon="5.90213">
        <ele>1690.14</ele>
        <time>2015-02-16T12:55:59Z</time>
      </trkpt>
      <trkpt lat="45.35977" lon="5.90211">
        <ele>1689.17</ele>
        <time>2015-02-16T12:56:01Z</time>
      </trkpt>
      <trkpt lat="45.35977" lon="5.90206">
        <ele>1687.73</ele>
        <time>2015-02-16T12:56:11Z</time>
      </trkpt>
      <trkpt lat="45.35977" lon="5.90223">
        <ele>1684.37</ele>
        <time>2015-02-16T12:56:15Z</time>
      </trkpt>
      <trkpt lat="45.35974" lon="5.90228">
        <ele>1680.04</ele>
        <time>2015-02-16T12:56:17Z</time>
      </trkpt>
      <trkpt lat="45.35972" lon="5.90236">
        <ele>1674.75</ele>
        <time>2015-02-16T12:56:19Z</time>
      </trkpt>
      <trkpt lat="45.3597" lon="5.90239">
        <ele>1671.87</ele>
        <time>2015-02-16T12:56:20Z</time>
      </trkpt>
      <trkpt lat="45.35963" lon="5.90245">
        <ele>1665.62</ele>
        <time>2015-02-16T12:56:22Z</time>
      </trkpt>
      <trkpt lat="45.35961" lon="5.9025">
        <ele>1665.62</ele>
        <time>2015-02-16T12:56:23Z</time>
      </trkpt>
      <trkpt lat="45.35956" lon="5.90253">
        <ele>1660.33</ele>
        <time>2015-02-16T12:56:25Z</time>
      </trkpt>
      <trkpt lat="45.35953" lon="5.90254">
        <ele>1657.93</ele>
        <time>2015-02-16T12:56:26Z</time>
      </trkpt>
      <trkpt lat="45.35941" lon="5.90251">
        <ele>1652.64</ele>
        <time>2015-02-16T12:56:29Z</time>
      </trkpt>
      <trkpt lat="45.35932" lon="5.90249">
        <ele>1648.8</ele>
        <time>2015-02-16T12:56:32Z</time>
      </trkpt>
      <trkpt lat="45.35931" lon="5.9025">
        <ele>1648.8</ele>
        <time>2015-02-16T12:56:33Z</time>
      </trkpt>
      <trkpt lat="45.35925" lon="5.90255">
        <ele>1646.4</ele>
        <time>2015-02-16T12:56:35Z</time>
      </trkpt>
      <trkpt lat="45.35928" lon="5.90263">
        <ele>1640.15</ele>
        <time>2015-02-16T12:56:38Z</time>
      </trkpt>
      <trkpt lat="45.35929" lon="5.90272">
        <ele>1635.82</ele>
        <time>2015-02-16T12:56:40Z</time>
      </trkpt>
      <trkpt lat="45.35925" lon="5.90275">
        <ele>1630.53</ele>
        <time>2015-02-16T12:56:42Z</time>
      </trkpt>
      <trkpt lat="45.35921" lon="5.90273">
        <ele>1628.61</ele>
        <time>2015-02-16T12:56:44Z</time>
      </trkpt>
      <trkpt lat="45.35922" lon="5.9027">
        <ele>1626.21</ele>
        <time>2015-02-16T12:56:47Z</time>
      </trkpt>
      <trkpt lat="45.35922" lon="5.90271">
        <ele>1626.21</ele>
        <time>2015-02-16T12:56:58Z</time>
      </trkpt>
      <trkpt lat="45.35912" lon="5.90277">
        <ele>1622.36</ele>
        <time>2015-02-16T12:57:04Z</time>
      </trkpt>
      <trkpt lat="45.35904" lon="5.90273">
        <ele>1620.44</ele>
        <time>2015-02-16T12:57:06Z</time>
      </trkpt>
      <trkpt lat="45.35901" lon="5.90272">
        <ele>1618.52</ele>
        <time>2015-02-16T12:57:07Z</time>
      </trkpt>
      <trkpt lat="45.35891" lon="5.90277">
        <ele>1612.75</ele>
        <time>2015-02-16T12:57:13Z</time>
      </trkpt>
      <trkpt lat="45.35886" lon="5.90284">
        <ele>1607.46</ele>
        <time>2015-02-16T12:57:15Z</time>
      </trkpt>
      <trkpt lat="45.35879" lon="5.90286">
        <ele>1604.58</ele>
        <time>2015-02-16T12:57:17Z</time>
      </trkpt>
      <trkpt lat="45.35877" lon="5.90288">
        <ele>1601.69</ele>
        <time>2015-02-16T12:57:18Z</time>
      </trkpt>
      <trkpt lat="45.35876" lon="5.90291">
        <ele>1598.33</ele>
        <time>2015-02-16T12:57:19Z</time>
      </trkpt>
      <trkpt lat="45.3587" lon="5.90295">
        <ele>1594.48</ele>
        <time>2015-02-16T12:57:21Z</time>
      </trkpt>
      <trkpt lat="45.35863" lon="5.90295">
        <ele>1590.16</ele>
        <time>2015-02-16T12:57:23Z</time>
      </trkpt>
      <trkpt lat="45.35859" lon="5.90296">
        <ele>1586.79</ele>
        <time>2015-02-16T12:57:25Z</time>
      </trkpt>
      <trkpt lat="45.35859" lon="5.90298">
        <ele>1584.87</ele>
        <time>2015-02-16T12:57:28Z</time>
      </trkpt>
      <trkpt lat="45.3586" lon="5.90297">
        <ele>1582.95</ele>
        <time>2015-02-16T12:57:31Z</time>
      </trkpt>
      <trkpt lat="45.35859" lon="5.90297">
        <ele>1582.95</ele>
        <time>2015-02-16T12:57:40Z</time>
      </trkpt>
      <trkpt lat="45.35843" lon="5.903">
        <ele>1578.14</ele>
        <time>2015-02-16T12:57:44Z</time>
      </trkpt>
      <trkpt lat="45.35838" lon="5.90306">
        <ele>1574.78</ele>
        <time>2015-02-16T12:57:46Z</time>
      </trkpt>
      <trkpt lat="45.35839" lon="5.90316">
        <ele>1570.45</ele>
        <time>2015-02-16T12:57:49Z</time>
      </trkpt>
      <trkpt lat="45.35837" lon="5.90318">
        <ele>1570.45</ele>
        <time>2015-02-16T12:57:50Z</time>
      </trkpt>
      <trkpt lat="45.35837" lon="5.90318">
        <ele>1566.61</ele>
        <time>2015-02-16T12:57:53Z</time>
      </trkpt>
      <trkpt lat="45.35837" lon="5.90318">
        <ele>1565.16</ele>
        <time>2015-02-16T12:58:04Z</time>
      </trkpt>
      <trkpt lat="45.35831" lon="5.90328">
        <ele>1560.36</ele>
        <time>2015-02-16T12:58:08Z</time>
      </trkpt>
      <trkpt lat="45.35823" lon="5.90329">
        <ele>1556.51</ele>
        <time>2015-02-16T12:58:11Z</time>
      </trkpt>
      <trkpt lat="45.3582" lon="5.9033">
        <ele>1556.51</ele>
        <time>2015-02-16T12:58:12Z</time>
      </trkpt>
      <trkpt lat="45.35817" lon="5.90331">
        <ele>1555.55</ele>
        <time>2015-02-16T12:58:13Z</time>
      </trkpt>
      <trkpt lat="45.3581" lon="5.9034">
        <ele>1550.26</ele>
        <time>2015-02-16T12:58:17Z</time>
      </trkpt>
      <trkpt lat="45.3581" lon="5.90342">
        <ele>1546.42</ele>
        <time>2015-02-16T12:58:20Z</time>
      </trkpt>
      <trkpt lat="45.35816" lon="5.90338">
        <ele>1545.94</ele>
        <time>2015-02-16T12:58:40Z</time>
      </trkpt>
      <trkpt lat="45.35816" lon="5.90354">
        <ele>1542.09</ele>
        <time>2015-02-16T12:58:47Z</time>
      </trkpt>
      <trkpt lat="45.35815" lon="5.90357">
        <ele>1540.17</ele>
        <time>2015-02-16T12:58:49Z</time>
      </trkpt>
      <trkpt lat="45.35811" lon="5.90362">
        <ele>1538.25</ele>
        <time>2015-02-16T12:58:52Z</time>
      </trkpt>
      <trkpt lat="45.35811" lon="5.90369">
        <ele>1534.88</ele>
        <time>2015-02-16T12:58:55Z</time>
      </trkpt>
      <trkpt lat="45.35811" lon="5.90379">
        <ele>1531.52</ele>
        <time>2015-02-16T12:58:57Z</time>
      </trkpt>
      <trkpt lat="45.35806" lon="5.90385">
        <ele>1528.15</ele>
        <time>2015-02-16T12:58:59Z</time>
      </trkpt>
      <trkpt lat="45.35804" lon="5.90391">
        <ele>1525.27</ele>
        <time>2015-02-16T12:59:02Z</time>
      </trkpt>
      <trkpt lat="45.35799" lon="5.90396">
        <ele>1521.9</ele>
        <time>2015-02-16T12:59:05Z</time>
      </trkpt>
      <trkpt lat="45.35799" lon="5.90395">
        <ele>1519.02</ele>
        <time>2015-02-16T12:59:09Z</time>
      </trkpt>
      <trkpt lat="45.35802" lon="5.90396">
        <ele>1519.02</ele>
        <time>2015-02-16T12:59:18Z</time>
      </trkpt>
      <trkpt lat="45.35801" lon="5.90408">
        <ele>1514.21</ele>
        <time>2015-02-16T12:59:25Z</time>
      </trkpt>
      <trkpt lat="45.35801" lon="5.90411">
        <ele>1511.33</ele>
        <time>2015-02-16T12:59:29Z</time>
      </trkpt>
      <trkpt lat="45.35802" lon="5.90409">
        <ele>1511.33</ele>
        <time>2015-02-16T12:59:37Z</time>
      </trkpt>
      <trkpt lat="45.35801" lon="5.90418">
        <ele>1507.97</ele>
        <time>2015-02-16T12:59:42Z</time>
      </trkpt>
      <trkpt lat="45.35801" lon="5.90419">
        <ele>1506.04</ele>
        <time>2015-02-16T12:59:45Z</time>
      </trkpt>
      <trkpt lat="45.35801" lon="5.90421">
        <ele>1506.04</ele>
        <time>2015-02-16T12:59:47Z</time>
      </trkpt>
      <trkpt lat="45.35801" lon="5.90434">
        <ele>1504.12</ele>
        <time>2015-02-16T12:59:50Z</time>
      </trkpt>
      <trkpt lat="45.35794" lon="5.90437">
        <ele>1500.76</ele>
        <time>2015-02-16T12:59:53Z</time>
      </trkpt>
      <trkpt lat="45.3579" lon="5.9044">
        <ele>1497.39</ele>
        <time>2015-02-16T13:00:05Z</time>
      </trkpt>
      <trkpt lat="45.35787" lon="5.90444">
        <ele>1494.51</ele>
        <time>2015-02-16T13:00:16Z</time>
      </trkpt>
      <trkpt lat="45.35791" lon="5.90451">
        <ele>1491.14</ele>
        <time>2015-02-16T13:00:28Z</time>
      </trkpt>
      <trkpt lat="45.35787" lon="5.90456">
        <ele>1487.78</ele>
        <time>2015-02-16T13:00:38Z</time>
      </trkpt>
      <trkpt lat="45.35786" lon="5.90456">
        <ele>1487.78</ele>
        <time>2015-02-16T13:00:39Z</time>
      </trkpt>
      <trkpt lat="45.35781" lon="5.90468">
        <ele>1484.41</ele>
        <time>2015-02-16T13:00:45Z</time>
      </trkpt>
      <trkpt lat="45.35775" lon="5.90477">
        <ele>1481.05</ele>
        <time>2015-02-16T13:00:48Z</time>
      </trkpt>
      <trkpt lat="45.35766" lon="5.9048">
        <ele>1479.61</ele>
        <time>2015-02-16T13:00:50Z</time>
      </trkpt>
      <trkpt lat="45.35763" lon="5.9048">
        <ele>1478.16</ele>
        <time>2015-02-16T13:00:51Z</time>
      </trkpt>
      <trkpt lat="45.35757" lon="5.90486">
        <ele>1475.28</ele>
        <time>2015-02-16T13:00:59Z</time>
      </trkpt>
      <trkpt lat="45.35751" lon="5.90485">
        <ele>1472.4</ele>
        <time>2015-02-16T13:01:07Z</time>
      </trkpt>
      <trkpt lat="45.35733" lon="5.90495">
        <ele>1469.99</ele>
        <time>2015-02-16T13:01:14Z</time>
      </trkpt>
      <trkpt lat="45.35729" lon="5.90505">
        <ele>1465.19</ele>
        <time>2015-02-16T13:01:18Z</time>
      </trkpt>
      <trkpt lat="45.35728" lon="5.90505">
        <ele>1464.23</ele>
        <time>2015-02-16T13:01:20Z</time>
      </trkpt>
      <trkpt lat="45.35726" lon="5.90508">
        <ele>1462.78</ele>
        <time>2015-02-16T13:01:23Z</time>
      </trkpt>
      <trkpt lat="45.35724" lon="5.9051">
        <ele>1462.3</ele>
        <time>2015-02-16T13:01:26Z</time>
      </trkpt>
      <trkpt lat="45.35716" lon="5.90509">
        <ele>1460.38</ele>
        <time>2015-02-16T13:01:30Z</time>
      </trkpt>
      <trkpt lat="45.35715" lon="5.9051">
        <ele>1458.46</ele>
        <time>2015-02-16T13:01:33Z</time>
      </trkpt>
      <trkpt lat="45.35713" lon="5.9051">
        <ele>1458.46</ele>
        <time>2015-02-16T13:01:36Z</time>
      </trkpt>
      <trkpt lat="45.35705" lon="5.90514">
        <ele>1457.02</ele>
        <time>2015-02-16T13:01:40Z</time>
      </trkpt>
      <trkpt lat="45.35704" lon="5.90527">
        <ele>1453.65</ele>
        <time>2015-02-16T13:01:45Z</time>
      </trkpt>
      <trkpt lat="45.357" lon="5.90533">
        <ele>1449.81</ele>
        <time>2015-02-16T13:01:49Z</time>
      </trkpt>
      <trkpt lat="45.35695" lon="5.90532">
        <ele>1448.84</ele>
        <time>2015-02-16T13:01:51Z</time>
      </trkpt>
      <trkpt lat="45.35682" lon="5.90538">
        <ele>1445</ele>
        <time>2015-02-16T13:01:55Z</time>
      </trkpt>
      <trkpt lat="45.35681" lon="5.90539">
        <ele>1444.04</ele>
        <time>2015-02-16T13:02:13Z</time>
      </trkpt>
      <trkpt lat="45.3568" lon="5.9054">
        <ele>1444.04</ele>
        <time>2015-02-16T13:02:20Z</time>
      </trkpt>
      <trkpt lat="45.35676" lon="5.90539">
        <ele>1442.11</ele>
        <time>2015-02-16T13:02:27Z</time>
      </trkpt>
      <trkpt lat="45.3566" lon="5.9054">
        <ele>1438.75</ele>
        <time>2015-02-16T13:02:34Z</time>
      </trkpt>
      <trkpt lat="45.35665" lon="5.90542">
        <ele>1436.35</ele>
        <time>2015-02-16T13:02:42Z</time>
      </trkpt>
      <trkpt lat="45.35667" lon="5.90556">
        <ele>1432.5</ele>
        <time>2015-02-16T13:02:48Z</time>
      </trkpt>
      <trkpt lat="45.35661" lon="5.9056">
        <ele>1429.62</ele>
        <time>2015-02-16T13:02:50Z</time>
      </trkpt>
      <trkpt lat="45.35659" lon="5.90561">
        <ele>1429.62</ele>
        <time>2015-02-16T13:02:51Z</time>
      </trkpt>
      <trkpt lat="45.3566" lon="5.90569">
        <ele>1426.25</ele>
        <time>2015-02-16T13:02:54Z</time>
      </trkpt>
      <trkpt lat="45.35657" lon="5.9058">
        <ele>1422.89</ele>
        <time>2015-02-16T13:02:58Z</time>
      </trkpt>
      <trkpt lat="45.35656" lon="5.90589">
        <ele>1420.49</ele>
        <time>2015-02-16T13:03:01Z</time>
      </trkpt>
      <trkpt lat="45.35657" lon="5.90591">
        <ele>1417.6</ele>
        <time>2015-02-16T13:03:05Z</time>
      </trkpt>
      <trkpt lat="45.35658" lon="5.90589">
        <ele>1418.08</ele>
        <time>2015-02-16T13:03:24Z</time>
      </trkpt>
      <trkpt lat="45.35659" lon="5.90603">
        <ele>1415.2</ele>
        <time>2015-02-16T13:03:29Z</time>
      </trkpt>
      <trkpt lat="45.35651" lon="5.9062">
        <ele>1411.35</ele>
        <time>2015-02-16T13:03:33Z</time>
      </trkpt>
      <trkpt lat="45.35647" lon="5.90629">
        <ele>1408.47</ele>
        <time>2015-02-16T13:03:35Z</time>
      </trkpt>
      <trkpt lat="45.35642" lon="5.90633">
        <ele>1404.14</ele>
        <time>2015-02-16T13:03:38Z</time>
      </trkpt>
      <trkpt lat="45.35642" lon="5.90634">
        <ele>1403.66</ele>
        <time>2015-02-16T13:03:39Z</time>
      </trkpt>
      <trkpt lat="45.35656" lon="5.90661">
        <ele>1399.82</ele>
        <time>2015-02-16T13:03:48Z</time>
      </trkpt>
      <trkpt lat="45.35659" lon="5.90666">
        <ele>1398.86</ele>
        <time>2015-02-16T13:03:49Z</time>
      </trkpt>
      <trkpt lat="45.35673" lon="5.90686">
        <ele>1395.01</ele>
        <time>2015-02-16T13:03:53Z</time>
      </trkpt>
      <trkpt lat="45.35678" lon="5.90691">
        <ele>1393.57</ele>
        <time>2015-02-16T13:03:54Z</time>
      </trkpt>
      <trkpt lat="45.35689" lon="5.90712">
        <ele>1388.28</ele>
        <time>2015-02-16T13:03:57Z</time>
      </trkpt>
      <trkpt lat="45.35696" lon="5.90729">
        <ele>1384.92</ele>
        <time>2015-02-16T13:03:59Z</time>
      </trkpt>
      <trkpt lat="45.35699" lon="5.90737">
        <ele>1384.92</ele>
        <time>2015-02-16T13:04:00Z</time>
      </trkpt>
      <trkpt lat="45.35704" lon="5.90753">
        <ele>1381.07</ele>
        <time>2015-02-16T13:04:03Z</time>
      </trkpt>
      <trkpt lat="45.35706" lon="5.90759">
        <ele>1380.11</ele>
        <time>2015-02-16T13:04:04Z</time>
      </trkpt>
      <trkpt lat="45.35715" lon="5.90779">
        <ele>1375.3</ele>
        <time>2015-02-16T13:04:07Z</time>
      </trkpt>
      <trkpt lat="45.35726" lon="5.90798">
        <ele>1372.42</ele>
        <time>2015-02-16T13:04:10Z</time>
      </trkpt>
      <trkpt lat="45.3573" lon="5.90803">
        <ele>1370.98</ele>
        <time>2015-02-16T13:04:11Z</time>
      </trkpt>
      <trkpt lat="45.35735" lon="5.90814">
        <ele>1368.57</ele>
        <time>2015-02-16T13:04:13Z</time>
      </trkpt>
      <trkpt lat="45.35735" lon="5.90822">
        <ele>1364.25</ele>
        <time>2015-02-16T13:04:18Z</time>
      </trkpt>
      <trkpt lat="45.35745" lon="5.90835">
        <ele>1362.81</ele>
        <time>2015-02-16T13:04:35Z</time>
      </trkpt>
      <trkpt lat="45.35765" lon="5.90857">
        <ele>1359.44</ele>
        <time>2015-02-16T13:04:39Z</time>
      </trkpt>
      <trkpt lat="45.35777" lon="5.90868">
        <ele>1356.08</ele>
        <time>2015-02-16T13:04:42Z</time>
      </trkpt>
      <trkpt lat="45.35782" lon="5.9087">
        <ele>1355.12</ele>
        <time>2015-02-16T13:04:43Z</time>
      </trkpt>
      <trkpt lat="45.35781" lon="5.90887">
        <ele>1352.23</ele>
        <time>2015-02-16T13:04:46Z</time>
      </trkpt>
      <trkpt lat="45.35776" lon="5.90909">
        <ele>1349.35</ele>
        <time>2015-02-16T13:04:49Z</time>
      </trkpt>
      <trkpt lat="45.35775" lon="5.90911">
        <ele>1347.91</ele>
        <time>2015-02-16T13:04:50Z</time>
      </trkpt>
      <trkpt lat="45.35775" lon="5.90934">
        <ele>1342.62</ele>
        <time>2015-02-16T13:04:54Z</time>
      </trkpt>
      <trkpt lat="45.35775" lon="5.90949">
        <ele>1339.73</ele>
        <time>2015-02-16T13:04:56Z</time>
      </trkpt>
      <trkpt lat="45.35775" lon="5.90963">
        <ele>1335.89</ele>
        <time>2015-02-16T13:04:58Z</time>
      </trkpt>
      <trkpt lat="45.35776" lon="5.90977">
        <ele>1333.97</ele>
        <time>2015-02-16T13:05:00Z</time>
      </trkpt>
      <trkpt lat="45.3578" lon="5.90999">
        <ele>1327.72</ele>
        <time>2015-02-16T13:05:03Z</time>
      </trkpt>
      <trkpt lat="45.3578" lon="5.91005">
        <ele>1325.8</ele>
        <time>2015-02-16T13:05:04Z</time>
      </trkpt>
      <trkpt lat="45.35769" lon="5.9101">
        <ele>1320.03</ele>
        <time>2015-02-16T13:05:07Z</time>
      </trkpt>
      <trkpt lat="45.35765" lon="5.91006">
        <ele>1318.59</ele>
        <time>2015-02-16T13:05:08Z</time>
      </trkpt>
      <trkpt lat="45.35756" lon="5.90999">
        <ele>1317.14</ele>
        <time>2015-02-16T13:05:10Z</time>
      </trkpt>
      <trkpt lat="45.35745" lon="5.90996">
        <ele>1315.22</ele>
        <time>2015-02-16T13:05:13Z</time>
      </trkpt>
      <trkpt lat="45.35736" lon="5.90988">
        <ele>1311.38</ele>
        <time>2015-02-16T13:05:17Z</time>
      </trkpt>
      <trkpt lat="45.35737" lon="5.90985">
        <ele>1310.41</ele>
        <time>2015-02-16T13:05:19Z</time>
      </trkpt>
      <trkpt lat="45.35727" lon="5.90956">
        <ele>1308.49</ele>
        <time>2015-02-16T13:05:36Z</time>
      </trkpt>
      <trkpt lat="45.35696" lon="5.9095">
        <ele>1304.17</ele>
        <time>2015-02-16T13:05:43Z</time>
      </trkpt>
      <trkpt lat="45.35689" lon="5.90949">
        <ele>1302.72</ele>
        <time>2015-02-16T13:05:44Z</time>
      </trkpt>
      <trkpt lat="45.35671" lon="5.90954">
        <ele>1295.99</ele>
        <time>2015-02-16T13:05:47Z</time>
      </trkpt>
      <trkpt lat="45.35675" lon="5.9097">
        <ele>1294.07</ele>
        <time>2015-02-16T13:05:49Z</time>
      </trkpt>
      <trkpt lat="45.35673" lon="5.90986">
        <ele>1289.75</ele>
        <time>2015-02-16T13:05:51Z</time>
      </trkpt>
      <trkpt lat="45.35671" lon="5.91036">
        <ele>1280.61</ele>
        <time>2015-02-16T13:05:55Z</time>
      </trkpt>
      <trkpt lat="45.3567" lon="5.91054">
        <ele>1277.25</ele>
        <time>2015-02-16T13:05:56Z</time>
      </trkpt>
      <trkpt lat="45.35676" lon="5.91091">
        <ele>1267.16</ele>
        <time>2015-02-16T13:05:59Z</time>
      </trkpt>
      <trkpt lat="45.35679" lon="5.91103">
        <ele>1267.16</ele>
        <time>2015-02-16T13:06:00Z</time>
      </trkpt>
      <trkpt lat="45.35678" lon="5.91117">
        <ele>1262.35</ele>
        <time>2015-02-16T13:06:01Z</time>
      </trkpt>
      <trkpt lat="45.35687" lon="5.9115">
        <ele>1254.18</ele>
        <time>2015-02-16T13:06:04Z</time>
      </trkpt>
      <trkpt lat="45.35691" lon="5.91159">
        <ele>1250.81</ele>
        <time>2015-02-16T13:06:05Z</time>
      </trkpt>
      <trkpt lat="45.3569" lon="5.91168">
        <ele>1249.37</ele>
        <time>2015-02-16T13:06:06Z</time>
      </trkpt>
      <trkpt lat="45.357" lon="5.91189">
        <ele>1243.6</ele>
        <time>2015-02-16T13:06:09Z</time>
      </trkpt>
      <trkpt lat="45.35708" lon="5.91209">
        <ele>1238.32</ele>
        <time>2015-02-16T13:06:11Z</time>
      </trkpt>
      <trkpt lat="45.35718" lon="5.91263">
        <ele>1228.22</ele>
        <time>2015-02-16T13:06:15Z</time>
      </trkpt>
      <trkpt lat="45.35713" lon="5.91293">
        <ele>1221.97</ele>
        <time>2015-02-16T13:06:17Z</time>
      </trkpt>
      <trkpt lat="45.35717" lon="5.91303">
        <ele>1217.65</ele>
        <time>2015-02-16T13:06:18Z</time>
      </trkpt>
      <trkpt lat="45.35718" lon="5.91311">
        <ele>1217.65</ele>
        <time>2015-02-16T13:06:19Z</time>
      </trkpt>
      <trkpt lat="45.35714" lon="5.9132">
        <ele>1212.84</ele>
        <time>2015-02-16T13:06:20Z</time>
      </trkpt>
      <trkpt lat="45.357" lon="5.91347">
        <ele>1202.75</ele>
        <time>2015-02-16T13:06:23Z</time>
      </trkpt>
      <trkpt lat="45.35696" lon="5.91359">
        <ele>1199.86</ele>
        <time>2015-02-16T13:06:24Z</time>
      </trkpt>
      <trkpt lat="45.35707" lon="5.91393">
        <ele>1188.81</ele>
        <time>2015-02-16T13:06:27Z</time>
      </trkpt>
      <trkpt lat="45.35707" lon="5.914">
        <ele>1188.81</ele>
        <time>2015-02-16T13:06:28Z</time>
      </trkpt>
      <trkpt lat="45.35703" lon="5.91409">
        <ele>1185.92</ele>
        <time>2015-02-16T13:06:29Z</time>
      </trkpt>
      <trkpt lat="45.35704" lon="5.91417">
        <ele>1182.56</ele>
        <time>2015-02-16T13:06:30Z</time>
      </trkpt>
      <trkpt lat="45.35707" lon="5.91426">
        <ele>1179.19</ele>
        <time>2015-02-16T13:06:31Z</time>
      </trkpt>
      <trkpt lat="45.35708" lon="5.91437">
        <ele>1175.83</ele>
        <time>2015-02-16T13:06:32Z</time>
      </trkpt>
      <trkpt lat="45.35705" lon="5.91444">
        <ele>1173.43</ele>
        <time>2015-02-16T13:06:33Z</time>
      </trkpt>
      <trkpt lat="45.357" lon="5.9147">
        <ele>1164.77</ele>
        <time>2015-02-16T13:06:36Z</time>
      </trkpt>
      <trkpt lat="45.35693" lon="5.91502">
        <ele>1161.89</ele>
        <time>2015-02-16T13:06:39Z</time>
      </trkpt>
      <trkpt lat="45.35682" lon="5.91525">
        <ele>1154.2</ele>
        <time>2015-02-16T13:06:41Z</time>
      </trkpt>
      <trkpt lat="45.35676" lon="5.91534">
        <ele>1152.76</ele>
        <time>2015-02-16T13:06:42Z</time>
      </trkpt>
      <trkpt lat="45.35668" lon="5.9156">
        <ele>1146.99</ele>
        <time>2015-02-16T13:06:44Z</time>
      </trkpt>
      <trkpt lat="45.35653" lon="5.91579">
        <ele>1143.63</ele>
        <time>2015-02-16T13:06:46Z</time>
      </trkpt>
      <trkpt lat="45.35637" lon="5.91623">
        <ele>1136.42</ele>
        <time>2015-02-16T13:06:49Z</time>
      </trkpt>
      <trkpt lat="45.35627" lon="5.91654">
        <ele>1128.24</ele>
        <time>2015-02-16T13:06:52Z</time>
      </trkpt>
      <trkpt lat="45.35631" lon="5.91658">
        <ele>1124.4</ele>
        <time>2015-02-16T13:06:53Z</time>
      </trkpt>
      <trkpt lat="45.35636" lon="5.9166">
        <ele>1122.96</ele>
        <time>2015-02-16T13:06:54Z</time>
      </trkpt>
      <trkpt lat="45.35641" lon="5.91679">
        <ele>1117.67</ele>
        <time>2015-02-16T13:06:57Z</time>
      </trkpt>
      <trkpt lat="45.35642" lon="5.91685">
        <ele>1115.75</ele>
        <time>2015-02-16T13:06:58Z</time>
      </trkpt>
      <trkpt lat="45.35654" lon="5.91699">
        <ele>1109.5</ele>
        <time>2015-02-16T13:07:01Z</time>
      </trkpt>
      <trkpt lat="45.35655" lon="5.91713">
        <ele>1105.65</ele>
        <time>2015-02-16T13:07:03Z</time>
      </trkpt>
      <trkpt lat="45.35659" lon="5.91716">
        <ele>1103.73</ele>
        <time>2015-02-16T13:07:04Z</time>
      </trkpt>
      <trkpt lat="45.35671" lon="5.91728">
        <ele>1100.37</ele>
        <time>2015-02-16T13:07:07Z</time>
      </trkpt>
      <trkpt lat="45.35674" lon="5.91741">
        <ele>1097</ele>
        <time>2015-02-16T13:07:09Z</time>
      </trkpt>
      <trkpt lat="45.35678" lon="5.91743">
        <ele>1095.08</ele>
        <time>2015-02-16T13:07:10Z</time>
      </trkpt>
      <trkpt lat="45.35688" lon="5.91755">
        <ele>1089.31</ele>
        <time>2015-02-16T13:07:14Z</time>
      </trkpt>
      <trkpt lat="45.35693" lon="5.91776">
        <ele>1086.91</ele>
        <time>2015-02-16T13:07:17Z</time>
      </trkpt>
      <trkpt lat="45.35688" lon="5.91812">
        <ele>1082.1</ele>
        <time>2015-02-16T13:07:21Z</time>
      </trkpt>
      <trkpt lat="45.35683" lon="5.91817">
        <ele>1081.14</ele>
        <time>2015-02-16T13:07:23Z</time>
      </trkpt>
      <trkpt lat="45.35681" lon="5.91814">
        <ele>1081.62</ele>
        <time>2015-02-16T13:07:41Z</time>
      </trkpt>
      <trkpt lat="45.35668" lon="5.91821">
        <ele>1083.06</ele>
        <time>2015-02-16T13:08:37Z</time>
      </trkpt>
      <trkpt lat="45.35656" lon="5.9183">
        <ele>1084.02</ele>
        <time>2015-02-16T13:08:53Z</time>
      </trkpt>
      <trkpt lat="45.35644" lon="5.91834">
        <ele>1084.99</ele>
        <time>2015-02-16T13:09:11Z</time>
      </trkpt>
      <trkpt lat="45.35636" lon="5.91841">
        <ele>1084.99</ele>
        <time>2015-02-16T13:09:28Z</time>
      </trkpt>
      <trkpt lat="45.35624" lon="5.91852">
        <ele>1084.99</ele>
        <time>2015-02-16T13:10:41Z</time>
      </trkpt>
      <trkpt lat="45.35603" lon="5.91864">
        <ele>1085.47</ele>
        <time>2015-02-16T13:11:03Z</time>
      </trkpt>
      <trkpt lat="45.35592" lon="5.91883">
        <ele>1083.54</ele>
        <time>2015-02-16T13:11:21Z</time>
      </trkpt>
      <trkpt lat="45.35593" lon="5.91898">
        <ele>1084.02</ele>
        <time>2015-02-16T13:11:39Z</time>
      </trkpt>
      <trkpt lat="45.35593" lon="5.91898">
        <ele>1083.06</ele>
        <time>2015-02-16T13:12:03Z</time>
      </trkpt>
      <trkpt lat="45.35593" lon="5.91898">
        <ele>1082.58</ele>
        <time>2015-02-16T13:12:42Z</time>
      </trkpt>
      <trkpt lat="45.35594" lon="5.91896">
        <ele>1081.62</ele>
        <time>2015-02-16T13:14:07Z</time>
      </trkpt>
      <trkpt lat="45.35595" lon="5.91898">
        <ele>1081.62</ele>
        <time>2015-02-16T13:14:45Z</time>
      </trkpt>
      <trkpt lat="45.35595" lon="5.91898">
        <ele>1082.1</ele>
        <time>2015-02-16T13:14:51Z</time>
      </trkpt>
    </trkseg>
  </trk>
</gpx>